Wetterdaten: Mittwoch, 15.09.2021
Datum Zeit Temp. Aussen Temp. o. S. Temp +5cm Feuchte Auss Luftdruck Regen Sonnenschein Regendauer Solar Windben Empfang
15.09.2021 00:00 20,7 C 19,4 C 17,8 C 85 % 1012,3 hPa 0,0 l/m 0 min 0 min 0 W/m 0,0 km/h (0 Bft) 93,48 %
15.09.2021 00:02 20,7 C 19,4 C 17,8 C 85 % 1012,4 hPa 0,0 l/m 0 min 0 min 0 W/m 3,2 km/h (1 Bft) 93,33 %
15.09.2021 00:04 20,6 C 19,4 C 17,8 C 85 % 1012,4 hPa 0,0 l/m 0 min 0 min 0 W/m 3,2 km/h (1 Bft) 95,74 %
15.09.2021 00:07 20,6 C 19,4 C 17,8 C 85 % 1012,4 hPa 0,0 l/m 0 min 0 min 0 W/m 3,2 km/h (1 Bft) 95,77 %
15.09.2021 00:08 20,6 C 19,4 C 17,8 C 85 % 1012,4 hPa 0,0 l/m 0 min 0 min 0 W/m 0,0 km/h (0 Bft) 100,00 %
15.09.2021 00:10 20,6 C 19,4 C 17,8 C 85 % 1012,4 hPa 0,0 l/m 0 min 0 min 0 W/m 3,2 km/h (1 Bft) 95,74 %
15.09.2021 00:12 20,6 C 19,4 C 17,8 C 85 % 1012,4 hPa 0,0 l/m 0 min 0 min 0 W/m 3,2 km/h (1 Bft) 91,49 %
15.09.2021 00:14 20,6 C 19,4 C 17,8 C 85 % 1012,3 hPa 0,0 l/m 0 min 0 min 0 W/m 6,4 km/h (2 Bft) 91,49 %
15.09.2021 00:16 20,6 C 19,4 C 17,8 C 85 % 1012,3 hPa 0,0 l/m 0 min 0 min 0 W/m 3,2 km/h (1 Bft) 93,62 %
15.09.2021 00:18 20,5 C 19,4 C 17,8 C 86 % 1012,3 hPa 0,0 l/m 0 min 0 min 0 W/m 3,2 km/h (1 Bft) 91,49 %
15.09.2021 00:20 20,5 C 19,4 C 17,8 C 86 % 1012,3 hPa 0,0 l/m 0 min 0 min 0 W/m 3,2 km/h (1 Bft) 93,48 %
15.09.2021 00:22 20,5 C 19,4 C 17,8 C 86 % 1012,3 hPa 0,0 l/m 0 min 0 min 0 W/m 0,0 km/h (0 Bft) 91,49 %
15.09.2021 00:24 20,5 C 19,4 C 17,8 C 86 % 1012,3 hPa 0,0 l/m 0 min 0 min 0 W/m 3,2 km/h (1 Bft) 91,49 %
15.09.2021 00:26 20,5 C 19,4 C 17,3 C 86 % 1012,3 hPa 0,0 l/m 0 min 0 min 0 W/m 3,2 km/h (1 Bft) 93,62 %
15.09.2021 00:28 20,5 C 19,4 C 17,3 C 86 % 1012,3 hPa 0,0 l/m 0 min 0 min 0 W/m 0,0 km/h (0 Bft) 93,62 %
15.09.2021 00:30 20,5 C 19,4 C 17,3 C 86 % 1012,3 hPa 0,0 l/m 0 min 0 min 0 W/m 0,0 km/h (0 Bft) 93,62 %
15.09.2021 00:32 20,5 C 19,4 C 17,3 C 86 % 1012,3 hPa 0,0 l/m 0 min 0 min 0 W/m 0,0 km/h (0 Bft) 95,65 %
15.09.2021 00:34 20,5 C 19,4 C 17,3 C 86 % 1012,3 hPa 0,0 l/m 0 min 0 min 0 W/m 0,0 km/h (0 Bft) 97,87 %
15.09.2021 00:36 20,4 C 19,4 C 17,3 C 86 % 1012,3 hPa 0,0 l/m 0 min 0 min 0 W/m 3,2 km/h (1 Bft) 97,87 %
15.09.2021 00:38 20,4 C 19,4 C 17,3 C 86 % 1012,3 hPa 0,0 l/m 0 min 0 min 0 W/m 3,2 km/h (1 Bft) 100,00 %
15.09.2021 00:40 20,4 C 19,4 C 17,3 C 86 % 1012,3 hPa 0,0 l/m 0 min 0 min 0 W/m 6,4 km/h (2 Bft) 97,87 %
15.09.2021 00:42 20,4 C 18,9 C 17,3 C 87 % 1012,3 hPa 0,0 l/m 0 min 0 min 0 W/m 3,2 km/h (1 Bft) 97,87 %
15.09.2021 00:44 20,4 C 18,9 C 17,3 C 87 % 1012,3 hPa 0,0 l/m 0 min 0 min 0 W/m 3,2 km/h (1 Bft) 97,83 %
15.09.2021 00:46 20,4 C 18,9 C 17,3 C 87 % 1012,3 hPa 0,0 l/m 0 min 0 min 0 W/m 3,2 km/h (1 Bft) 97,87 %
15.09.2021 00:48 20,3 C 18,9 C 17,3 C 87 % 1012,3 hPa 0,0 l/m 0 min 0 min 0 W/m 3,2 km/h (1 Bft) 95,74 %
15.09.2021 00:50 20,3 C 18,9 C 17,3 C 87 % 1012,3 hPa 0,0 l/m 0 min 0 min 0 W/m 3,2 km/h (1 Bft) 97,87 %
15.09.2021 00:52 20,3 C 18,9 C 17,3 C 87 % 1012,3 hPa 0,0 l/m 0 min 0 min 0 W/m 3,2 km/h (1 Bft) 95,74 %
15.09.2021 00:54 20,3 C 18,9 C 17,3 C 87 % 1012,3 hPa 0,0 l/m 0 min 0 min 0 W/m 3,2 km/h (1 Bft) 97,83 %
15.09.2021 00:56 20,3 C 18,9 C 17,3 C 87 % 1012,3 hPa 0,0 l/m 0 min 0 min 0 W/m 3,2 km/h (1 Bft) 97,87 %
15.09.2021 00:58 20,3 C 18,9 C 17,3 C 87 % 1012,3 hPa 0,0 l/m 0 min 0 min 0 W/m 3,2 km/h (1 Bft) 97,87 %
15.09.2021 01:00 20,2 C 18,9 C 17,3 C 87 % 1012,3 hPa 0,0 l/m 0 min 0 min 0 W/m 3,2 km/h (1 Bft) 97,87 %
15.09.2021 01:02 20,2 C 18,9 C 17,3 C 87 % 1012,2 hPa 0,0 l/m 0 min 0 min 0 W/m 3,2 km/h (1 Bft) 100,00 %
15.09.2021 01:04 20,1 C 18,9 C 17,3 C 87 % 1012,3 hPa 0,0 l/m 0 min 0 min 0 W/m 3,2 km/h (1 Bft) 100,00 %
15.09.2021 01:06 20,1 C 18,9 C 17,3 C 87 % 1012,2 hPa 0,0 l/m 0 min 0 min 0 W/m 0,0 km/h (0 Bft) 100,00 %
15.09.2021 01:08 20,1 C 18,9 C 17,3 C 87 % 1012,2 hPa 0,0 l/m 0 min 0 min 0 W/m 3,2 km/h (1 Bft) 100,00 %
15.09.2021 01:10 20,1 C 18,9 C 17,3 C 88 % 1012,2 hPa 0,0 l/m 0 min 0 min 0 W/m 0,0 km/h (0 Bft) 100,00 %
15.09.2021 01:12 20,1 C 18,9 C 17,3 C 88 % 1012,1 hPa 0,0 l/m 0 min 0 min 0 W/m 0,0 km/h (0 Bft) 100,00 %
15.09.2021 01:14 20,1 C 18,9 C 17,3 C 88 % 1012,1 hPa 0,0 l/m 0 min 0 min 0 W/m 0,0 km/h (0 Bft) 100,00 %
15.09.2021 01:16 20,1 C 18,9 C 17,3 C 88 % 1012,0 hPa 0,0 l/m 0 min 0 min 0 W/m 3,2 km/h (1 Bft) 100,00 %
15.09.2021 01:18 20,0 C 18,9 C 17,3 C 88 % 1012,1 hPa 0,0 l/m 0 min 0 min 0 W/m 3,2 km/h (1 Bft) 100,00 %
15.09.2021 01:20 20,0 C 18,9 C 17,3 C 88 % 1012,1 hPa 0,0 l/m 0 min 0 min 0 W/m 3,2 km/h (1 Bft) 100,00 %
15.09.2021 01:22 20,0 C 18,9 C 17,3 C 88 % 1012,1 hPa 0,0 l/m 0 min 0 min 0 W/m 3,2 km/h (1 Bft) 100,00 %
15.09.2021 01:24 20,0 C 18,9 C 17,3 C 88 % 1012,0 hPa 0,0 l/m 0 min 0 min 0 W/m 0,0 km/h (0 Bft) 100,00 %
15.09.2021 01:26 20,0 C 18,9 C 17,3 C 88 % 1012,0 hPa 0,0 l/m 0 min 0 min 0 W/m 6,4 km/h (2 Bft) 100,00 %
15.09.2021 01:28 20,0 C 18,9 C 17,3 C 88 % 1012,0 hPa 0,0 l/m 0 min 0 min 0 W/m 3,2 km/h (1 Bft) 100,00 %
15.09.2021 01:30 20,0 C 18,9 C 17,3 C 88 % 1012,0 hPa 0,0 l/m 0 min 0 min 0 W/m 6,4 km/h (2 Bft) 97,83 %
15.09.2021 01:32 20,0 C 18,9 C 17,3 C 88 % 1012,0 hPa 0,0 l/m 0 min 0 min 0 W/m 6,4 km/h (2 Bft) 100,00 %
15.09.2021 01:34 19,9 C 18,9 C 17,3 C 89 % 1012,0 hPa 0,0 l/m 0 min 0 min 0 W/m 3,2 km/h (1 Bft) 100,00 %
15.09.2021 01:36 19,9 C 18,9 C 17,3 C 89 % 1012,0 hPa 0,0 l/m 0 min 0 min 0 W/m 3,2 km/h (1 Bft) 100,00 %
15.09.2021 01:38 19,9 C 18,9 C 17,3 C 89 % 1011,9 hPa 0,0 l/m 0 min 0 min 0 W/m 6,4 km/h (2 Bft) 100,00 %
15.09.2021 01:40 19,9 C 18,9 C 17,3 C 89 % 1011,9 hPa 0,0 l/m 0 min 0 min 0 W/m 3,2 km/h (1 Bft) 97,87 %
15.09.2021 01:42 19,9 C 18,9 C 17,3 C 89 % 1011,9 hPa 0,0 l/m 0 min 0 min 0 W/m 3,2 km/h (1 Bft) 100,00 %
15.09.2021 01:44 19,9 C 18,9 C 17,3 C 89 % 1011,9 hPa 0,0 l/m 0 min 0 min 0 W/m 3,2 km/h (1 Bft) 100,00 %
15.09.2021 01:46 19,9 C 18,9 C 17,3 C 89 % 1011,9 hPa 0,0 l/m 0 min 0 min 0 W/m 3,2 km/h (1 Bft) 100,00 %
15.09.2021 01:48 19,9 C 18,9 C 17,3 C 89 % 1011,9 hPa 0,0 l/m 0 min 0 min 0 W/m 3,2 km/h (1 Bft) 100,00 %
15.09.2021 01:50 19,8 C 18,9 C 17,3 C 89 % 1011,9 hPa 0,0 l/m 0 min 0 min 0 W/m 3,2 km/h (1 Bft) 95,74 %
15.09.2021 01:52 19,8 C 18,9 C 17,3 C 89 % 1011,9 hPa 0,0 l/m 0 min 0 min 0 W/m 12,9 km/h (3 Bft) 100,00 %
15.09.2021 01:54 19,8 C 18,9 C 17,3 C 89 % 1011,9 hPa 0,0 l/m 0 min 0 min 0 W/m 6,4 km/h (2 Bft) 97,83 %
15.09.2021 01:56 19,8 C 18,9 C 17,3 C 89 % 1011,8 hPa 0,0 l/m 0 min 0 min 0 W/m 3,2 km/h (1 Bft) 97,87 %
15.09.2021 01:58 19,8 C 18,9 C 17,3 C 89 % 1011,9 hPa 0,0 l/m 0 min 0 min 0 W/m 6,4 km/h (2 Bft) 97,87 %
15.09.2021 02:00 19,8 C 18,9 C 17,3 C 89 % 1011,8 hPa 0,0 l/m 0 min 0 min 0 W/m 6,4 km/h (2 Bft) 97,87 %
15.09.2021 02:02 19,8 C 18,9 C 17,3 C 89 % 1011,8 hPa 0,0 l/m 0 min 0 min 0 W/m 3,2 km/h (1 Bft) 97,87 %
15.09.2021 02:04 19,8 C 18,9 C 17,3 C 90 % 1011,8 hPa 0,0 l/m 0 min 0 min 0 W/m 3,2 km/h (1 Bft) 97,87 %
15.09.2021 02:06 19,8 C 18,9 C 17,3 C 90 % 1011,8 hPa 0,0 l/m 0 min 0 min 0 W/m 3,2 km/h (1 Bft) 97,83 %
15.09.2021 02:08 19,8 C 18,9 C 17,3 C 90 % 1011,8 hPa 0,0 l/m 0 min 0 min 0 W/m 6,4 km/h (2 Bft) 97,87 %
15.09.2021 02:10 19,7 C 18,9 C 17,3 C 90 % 1011,8 hPa 0,0 l/m 0 min 0 min 0 W/m 3,2 km/h (1 Bft) 97,87 %
15.09.2021 02:12 19,7 C 18,9 C 17,3 C 90 % 1011,8 hPa 0,0 l/m 0 min 0 min 0 W/m 3,2 km/h (1 Bft) 95,74 %
15.09.2021 02:14 19,7 C 18,9 C 17,3 C 90 % 1011,8 hPa 0,0 l/m 0 min 0 min 0 W/m 12,9 km/h (3 Bft) 95,74 %
15.09.2021 02:16 19,7 C 18,9 C 17,3 C 90 % 1011,8 hPa 0,0 l/m 0 min 0 min 0 W/m 6,4 km/h (2 Bft) 97,87 %
15.09.2021 02:18 19,7 C 18,9 C 17,3 C 90 % 1011,8 hPa 0,0 l/m 0 min 0 min 0 W/m 3,2 km/h (1 Bft) 97,83 %
15.09.2021 02:20 19,7 C 18,9 C 17,3 C 90 % 1011,8 hPa 0,0 l/m 0 min 0 min 0 W/m 6,4 km/h (2 Bft) 97,87 %
15.09.2021 02:22 19,7 C 18,9 C 17,3 C 90 % 1011,8 hPa 0,0 l/m 0 min 0 min 0 W/m 6,4 km/h (2 Bft) 97,87 %
15.09.2021 02:24 19,7 C 18,9 C 17,3 C 90 % 1011,7 hPa 0,0 l/m 0 min 0 min 0 W/m 3,2 km/h (1 Bft) 97,87 %
15.09.2021 02:26 19,7 C 18,9 C 17,3 C 90 % 1011,7 hPa 0,0 l/m 0 min 0 min 0 W/m 6,4 km/h (2 Bft) 97,87 %
15.09.2021 02:28 19,7 C 18,9 C 17,3 C 90 % 1011,7 hPa 0,0 l/m 0 min 0 min 0 W/m 6,4 km/h (2 Bft) 100,00 %
15.09.2021 02:30 19,7 C 18,9 C 17,3 C 90 % 1011,7 hPa 0,0 l/m 0 min 0 min 0 W/m 3,2 km/h (1 Bft) 100,00 %
15.09.2021 02:32 19,6 C 18,9 C 17,3 C 90 % 1011,7 hPa 0,0 l/m 0 min 0 min 0 W/m 6,4 km/h (2 Bft) 95,74 %
15.09.2021 02:34 19,6 C 18,9 C 17,3 C 90 % 1011,7 hPa 0,0 l/m 0 min 0 min 0 W/m 6,4 km/h (2 Bft) 97,87 %
15.09.2021 02:36 19,6 C 18,9 C 17,3 C 90 % 1011,7 hPa 0,0 l/m 0 min 0 min 0 W/m 6,4 km/h (2 Bft) 97,87 %
15.09.2021 02:38 19,6 C 18,9 C 17,3 C 90 % 1011,7 hPa 0,0 l/m 0 min 0 min 0 W/m 3,2 km/h (1 Bft) 97,87 %
15.09.2021 02:40 19,6 C 18,9 C 17,3 C 90 % 1011,6 hPa 0,0 l/m 0 min 0 min 0 W/m 3,2 km/h (1 Bft) 97,83 %
15.09.2021 02:42 19,6 C 18,9 C 17,3 C 90 % 1011,7 hPa 0,0 l/m 0 min 0 min 0 W/m 3,2 km/h (1 Bft) 97,87 %
15.09.2021 02:44 19,6 C 18,9 C 17,3 C 90 % 1011,7 hPa 0,0 l/m 0 min 0 min 0 W/m 3,2 km/h (1 Bft) 97,87 %
15.09.2021 02:46 19,6 C 18,9 C 17,3 C 90 % 1011,6 hPa 0,0 l/m 0 min 0 min 0 W/m 3,2 km/h (1 Bft) 97,87 %
15.09.2021 02:48 19,6 C 18,9 C 17,3 C 90 % 1011,6 hPa 0,0 l/m 0 min 0 min 0 W/m 3,2 km/h (1 Bft) 93,62 %
15.09.2021 02:50 19,6 C 18,9 C 17,3 C 90 % 1011,6 hPa 0,0 l/m 0 min 0 min 0 W/m 3,2 km/h (1 Bft) 93,62 %
15.09.2021 02:52 19,6 C 18,9 C 17,3 C 90 % 1011,6 hPa 0,0 l/m 0 min 0 min 0 W/m 0,0 km/h (0 Bft) 97,87 %
15.09.2021 02:54 19,6 C 18,9 C 17,3 C 90 % 1011,6 hPa 0,0 l/m 0 min 0 min 0 W/m 3,2 km/h (1 Bft) 95,65 %
15.09.2021 02:56 19,6 C 18,9 C 17,3 C 90 % 1011,5 hPa 0,0 l/m 0 min 0 min 0 W/m 3,2 km/h (1 Bft) 95,74 %
15.09.2021 02:58 19,6 C 18,9 C 17,3 C 90 % 1011,6 hPa 0,0 l/m 0 min 0 min 0 W/m 6,4 km/h (2 Bft) 95,74 %
15.09.2021 03:00 19,6 C 18,9 C 17,3 C 90 % 1011,5 hPa 0,0 l/m 0 min 0 min 0 W/m 3,2 km/h (1 Bft) 97,87 %
15.09.2021 03:02 19,6 C 18,9 C 17,3 C 90 % 1011,5 hPa 0,0 l/m 0 min 0 min 0 W/m 3,2 km/h (1 Bft) 95,74 %
15.09.2021 03:04 19,6 C 18,9 C 17,3 C 90 % 1011,5 hPa 0,0 l/m 0 min 0 min 0 W/m 0,0 km/h (0 Bft) 97,83 %
15.09.2021 03:06 19,6 C 18,9 C 17,3 C 91 % 1011,4 hPa 0,0 l/m 0 min 0 min 0 W/m 3,2 km/h (1 Bft) 95,74 %
15.09.2021 03:08 19,6 C 18,9 C 17,3 C 91 % 1011,5 hPa 0,0 l/m 0 min 0 min 0 W/m 3,2 km/h (1 Bft) 93,62 %
15.09.2021 03:10 19,6 C 18,9 C 17,3 C 91 % 1011,4 hPa 0,0 l/m 0 min 0 min 0 W/m 0,0 km/h (0 Bft) 93,62 %
15.09.2021 03:12 19,6 C 18,9 C 17,3 C 91 % 1011,5 hPa 0,0 l/m 0 min 0 min 0 W/m 3,2 km/h (1 Bft) 95,74 %
15.09.2021 03:14 19,6 C 18,9 C 17,3 C 91 % 1011,4 hPa 0,0 l/m 0 min 0 min 0 W/m 0,0 km/h (0 Bft) 95,74 %
15.09.2021 03:16 19,6 C 18,9 C 16,7 C 91 % 1011,4 hPa 0,0 l/m 0 min 0 min 0 W/m 0,0 km/h (0 Bft) 93,48 %
15.09.2021 03:18 19,6 C 18,9 C 16,7 C 91 % 1011,4 hPa 0,0 l/m 0 min 0 min 0 W/m 3,2 km/h (1 Bft) 97,87 %
15.09.2021 03:20 19,6 C 18,9 C 16,7 C 91 % 1011,5 hPa 0,0 l/m 0 min 0 min 0 W/m 0,0 km/h (0 Bft) 97,87 %
15.09.2021 03:22 19,6 C 18,3 C 16,7 C 91 % 1011,5 hPa 0,0 l/m 0 min 0 min 0 W/m 0,0 km/h (0 Bft) 97,87 %
15.09.2021 03:24 19,6 C 18,3 C 16,7 C 91 % 1011,4 hPa 0,0 l/m 0 min 0 min 0 W/m 3,2 km/h (1 Bft) 95,74 %
15.09.2021 03:26 19,6 C 18,3 C 16,7 C 91 % 1011,4 hPa 0,0 l/m 0 min 0 min 0 W/m 3,2 km/h (1 Bft) 97,87 %
15.09.2021 03:28 19,6 C 18,3 C 16,7 C 91 % 1011,3 hPa 0,0 l/m 0 min 0 min 0 W/m 3,2 km/h (1 Bft) 97,83 %
15.09.2021 03:30 19,5 C 18,3 C 17,3 C 91 % 1011,3 hPa 0,0 l/m 0 min 0 min 0 W/m 6,4 km/h (2 Bft) 97,87 %
15.09.2021 03:32 19,5 C 18,3 C 16,7 C 91 % 1011,3 hPa 0,0 l/m 0 min 2 min 0 W/m 6,4 km/h (2 Bft) 97,87 %
15.09.2021 03:34 19,5 C 18,3 C 16,7 C 91 % 1011,3 hPa 0,0 l/m 0 min 2 min 0 W/m 3,2 km/h (1 Bft) 97,87 %
15.09.2021 03:36 19,5 C 18,3 C 16,7 C 91 % 1011,3 hPa 0,0 l/m 0 min 2 min 0 W/m 3,2 km/h (1 Bft) 97,87 %
15.09.2021 03:38 19,5 C 18,3 C 16,7 C 91 % 1011,2 hPa 0,0 l/m 0 min 2 min 0 W/m 3,2 km/h (1 Bft) 93,62 %
15.09.2021 03:40 19,5 C 18,3 C 16,7 C 92 % 1011,2 hPa 0,0 l/m 0 min 0 min 0 W/m 6,4 km/h (2 Bft) 97,83 %
15.09.2021 03:42 19,5 C 18,3 C 16,7 C 92 % 1011,1 hPa 0,0 l/m 0 min 0 min 0 W/m 3,2 km/h (1 Bft) 95,74 %
15.09.2021 03:44 19,5 C 18,3 C 16,7 C 92 % 1011,1 hPa 0,0 l/m 0 min 0 min 0 W/m 3,2 km/h (1 Bft) 95,74 %
15.09.2021 03:46 19,5 C 18,3 C 16,7 C 92 % 1011,1 hPa 0,0 l/m 0 min 0 min 0 W/m 0,0 km/h (0 Bft) 97,87 %
15.09.2021 03:48 19,5 C 18,3 C 16,7 C 92 % 1011,0 hPa 0,0 l/m 0 min 2 min 0 W/m 0,0 km/h (0 Bft) 97,87 %
15.09.2021 03:50 19,5 C 18,3 C 16,7 C 92 % 1011,0 hPa 0,0 l/m 0 min 2 min 0 W/m 0,0 km/h (0 Bft) 95,65 %
15.09.2021 03:52 19,4 C 18,3 C 16,7 C 92 % 1010,9 hPa 0,0 l/m 0 min 0 min 0 W/m 0,0 km/h (0 Bft) 95,74 %
15.09.2021 03:54 19,4 C 18,3 C 16,7 C 92 % 1010,9 hPa 0,0 l/m 0 min 0 min 0 W/m 3,2 km/h (1 Bft) 91,49 %
15.09.2021 03:56 19,4 C 18,3 C 16,7 C 92 % 1010,9 hPa 0,0 l/m 0 min 0 min 0 W/m 3,2 km/h (1 Bft) 97,87 %
15.09.2021 03:58 19,4 C 18,3 C 16,7 C 92 % 1010,8 hPa 0,0 l/m 0 min 0 min 0 W/m 3,2 km/h (1 Bft) 97,87 %
15.09.2021 04:00 19,4 C 18,3 C 16,7 C 92 % 1010,8 hPa 0,0 l/m 0 min 0 min 0 W/m 3,2 km/h (1 Bft) 97,87 %
15.09.2021 04:02 19,4 C 18,3 C 16,7 C 92 % 1010,8 hPa 0,0 l/m 0 min 0 min 0 W/m 0,0 km/h (0 Bft) 100,00 %
15.09.2021 04:04 19,4 C 18,3 C 16,7 C 92 % 1010,8 hPa 0,0 l/m 0 min 0 min 0 W/m 3,2 km/h (1 Bft) 97,92 %
15.09.2021 04:06 19,4 C 18,3 C 16,7 C 92 % 1010,7 hPa 0,0 l/m 0 min 0 min 0 W/m 3,2 km/h (1 Bft) 97,87 %
15.09.2021 04:08 19,4 C 18,3 C 16,7 C 92 % 1010,7 hPa 0,0 l/m 0 min 0 min 0 W/m 3,2 km/h (1 Bft) 97,87 %
15.09.2021 04:10 19,4 C 18,3 C 16,7 C 92 % 1010,8 hPa 0,0 l/m 0 min 0 min 0 W/m 3,2 km/h (1 Bft) 97,87 %
15.09.2021 04:12 19,4 C 18,3 C 16,7 C 92 % 1010,7 hPa 0,0 l/m 0 min 0 min 0 W/m 3,2 km/h (1 Bft) 97,87 %
15.09.2021 04:14 19,3 C 18,3 C 16,7 C 92 % 1010,7 hPa 0,0 l/m 0 min 0 min 0 W/m 3,2 km/h (1 Bft) 97,83 %
15.09.2021 04:16 19,3 C 18,3 C 16,7 C 92 % 1010,6 hPa 0,0 l/m 0 min 0 min 0 W/m 0,0 km/h (0 Bft) 95,74 %
15.09.2021 04:18 19,3 C 18,3 C 16,7 C 93 % 1010,6 hPa 0,0 l/m 0 min 0 min 0 W/m 0,0 km/h (0 Bft) 97,87 %
15.09.2021 04:20 19,3 C 18,3 C 16,7 C 93 % 1010,6 hPa 0,0 l/m 0 min 0 min 0 W/m 0,0 km/h (0 Bft) 97,87 %
15.09.2021 04:22 19,3 C 18,3 C 16,7 C 93 % 1010,7 hPa 0,0 l/m 0 min 0 min 0 W/m 6,4 km/h (2 Bft) 93,62 %
15.09.2021 04:24 19,3 C 18,3 C 16,7 C 93 % 1010,7 hPa 0,0 l/m 0 min 0 min 0 W/m 3,2 km/h (1 Bft) 100,00 %
15.09.2021 04:26 19,3 C 18,3 C 16,7 C 93 % 1010,6 hPa 0,0 l/m 0 min 0 min 0 W/m 6,4 km/h (2 Bft) 97,83 %
15.09.2021 04:28 19,3 C 18,3 C 16,7 C 93 % 1010,6 hPa 0,0 l/m 0 min 0 min 0 W/m 6,4 km/h (2 Bft) 100,00 %
15.09.2021 04:30 19,3 C 18,3 C 16,7 C 93 % 1010,6 hPa 0,0 l/m 0 min 0 min 0 W/m 3,2 km/h (1 Bft) 100,00 %
15.09.2021 04:32 19,3 C 18,3 C 16,7 C 93 % 1010,6 hPa 0,0 l/m 0 min 0 min 0 W/m 6,4 km/h (2 Bft) 100,00 %
15.09.2021 04:34 19,3 C 18,3 C 17,3 C 93 % 1010,6 hPa 0,0 l/m 0 min 0 min 0 W/m 3,2 km/h (1 Bft) 100,00 %
15.09.2021 04:36 19,2 C 18,3 C 17,3 C 93 % 1010,6 hPa 0,0 l/m 0 min 0 min 0 W/m 6,4 km/h (2 Bft) 100,00 %
15.09.2021 04:38 19,2 C 18,3 C 17,3 C 93 % 1010,6 hPa 0,0 l/m 0 min 0 min 0 W/m 3,2 km/h (1 Bft) 100,00 %
15.09.2021 04:40 19,2 C 18,3 C 17,3 C 93 % 1010,6 hPa 0,0 l/m 0 min 0 min 0 W/m 3,2 km/h (1 Bft) 100,00 %
15.09.2021 04:42 19,2 C 18,3 C 17,3 C 93 % 1010,6 hPa 0,0 l/m 0 min 0 min 0 W/m 3,2 km/h (1 Bft) 100,00 %
15.09.2021 04:44 19,2 C 18,3 C 17,3 C 93 % 1010,7 hPa 0,0 l/m 0 min 0 min 0 W/m 3,2 km/h (1 Bft) 100,00 %
15.09.2021 04:46 19,2 C 18,3 C 17,3 C 94 % 1010,6 hPa 0,0 l/m 0 min 0 min 0 W/m 6,4 km/h (2 Bft) 100,00 %
15.09.2021 04:48 19,2 C 18,3 C 17,3 C 94 % 1010,7 hPa 0,0 l/m 0 min 0 min 0 W/m 6,4 km/h (2 Bft) 100,00 %
15.09.2021 04:50 19,1 C 18,3 C 17,3 C 94 % 1010,7 hPa 0,0 l/m 0 min 0 min 0 W/m 3,2 km/h (1 Bft) 100,00 %
15.09.2021 04:52 19,1 C 18,3 C 17,3 C 94 % 1010,7 hPa 0,0 l/m 0 min 2 min 0 W/m 6,4 km/h (2 Bft) 100,00 %
15.09.2021 04:54 19,1 C 18,3 C 17,3 C 94 % 1010,7 hPa 0,0 l/m 0 min 2 min 0 W/m 6,4 km/h (2 Bft) 100,00 %
15.09.2021 04:56 19,1 C 18,3 C 16,7 C 94 % 1010,7 hPa 0,0 l/m 0 min 2 min 0 W/m 6,4 km/h (2 Bft) 100,00 %
15.09.2021 04:58 19,1 C 18,3 C 16,7 C 94 % 1010,6 hPa 0,0 l/m 0 min 2 min 0 W/m 3,2 km/h (1 Bft) 100,00 %
15.09.2021 05:00 19,1 C 18,3 C 16,7 C 94 % 1010,6 hPa 0,0 l/m 0 min 2 min 0 W/m 6,4 km/h (2 Bft) 100,00 %
15.09.2021 05:02 19,1 C 18,3 C 16,7 C 94 % 1010,5 hPa 0,0 l/m 0 min 0 min 0 W/m 6,4 km/h (2 Bft) 100,00 %
15.09.2021 05:04 19,1 C 18,3 C 16,7 C 94 % 1010,5 hPa 0,0 l/m 0 min 0 min 0 W/m 3,2 km/h (1 Bft) 100,00 %
15.09.2021 05:06 19,1 C 18,3 C 16,7 C 94 % 1010,5 hPa 0,0 l/m 0 min 0 min 0 W/m 3,2 km/h (1 Bft) 100,00 %
15.09.2021 05:08 19,1 C 18,3 C 16,7 C 94 % 1010,5 hPa 0,0 l/m 0 min 0 min 0 W/m 3,2 km/h (1 Bft) 100,00 %
15.09.2021 05:10 19,1 C 18,3 C 16,7 C 94 % 1010,5 hPa 0,0 l/m 0 min 0 min 0 W/m 6,4 km/h (2 Bft) 100,00 %
15.09.2021 05:12 19,1 C 18,3 C 16,7 C 94 % 1010,5 hPa 0,0 l/m 0 min 0 min 0 W/m 0,0 km/h (0 Bft) 100,00 %
15.09.2021 05:14 19,1 C 18,3 C 16,7 C 94 % 1010,5 hPa 0,0 l/m 0 min 0 min 0 W/m 6,4 km/h (2 Bft) 100,00 %
15.09.2021 05:16 19,1 C 18,3 C 16,7 C 94 % 1010,5 hPa 0,0 l/m 0 min 0 min 0 W/m 3,2 km/h (1 Bft) 100,00 %
15.09.2021 05:18 19,0 C 18,3 C 16,7 C 94 % 1010,5 hPa 0,0 l/m 0 min 0 min 0 W/m 3,2 km/h (1 Bft) 100,00 %
15.09.2021 05:20 19,0 C 18,3 C 17,3 C 94 % 1010,5 hPa 0,0 l/m 0 min 0 min 0 W/m 3,2 km/h (1 Bft) 97,87 %
15.09.2021 05:22 19,0 C 18,3 C 17,3 C 94 % 1010,5 hPa 0,0 l/m 0 min 0 min 0 W/m 3,2 km/h (1 Bft) 95,74 %
15.09.2021 05:24 19,0 C 18,3 C 17,3 C 94 % 1010,5 hPa 0,0 l/m 0 min 0 min 0 W/m 6,4 km/h (2 Bft) 97,87 %
15.09.2021 05:26 19,0 C 18,3 C 17,3 C 94 % 1010,5 hPa 0,0 l/m 0 min 0 min 0 W/m 3,2 km/h (1 Bft) 97,83 %
15.09.2021 05:28 19,0 C 18,3 C 17,3 C 94 % 1010,5 hPa 0,0 l/m 0 min 0 min 0 W/m 6,4 km/h (2 Bft) 97,87 %
15.09.2021 05:30 19,0 C 18,3 C 17,3 C 94 % 1010,5 hPa 0,0 l/m 0 min 0 min 0 W/m 6,4 km/h (2 Bft) 97,87 %
15.09.2021 05:32 19,0 C 18,3 C 17,3 C 94 % 1010,5 hPa 0,0 l/m 0 min 0 min 0 W/m 6,4 km/h (2 Bft) 95,74 %
15.09.2021 05:34 19,0 C 18,3 C 17,3 C 94 % 1010,5 hPa 0,0 l/m 0 min 0 min 0 W/m 3,2 km/h (1 Bft) 97,87 %
15.09.2021 05:36 19,0 C 18,3 C 17,3 C 94 % 1010,5 hPa 0,0 l/m 0 min 0 min 0 W/m 3,2 km/h (1 Bft) 95,74 %
15.09.2021 05:38 19,0 C 18,3 C 17,3 C 94 % 1010,5 hPa 0,0 l/m 0 min 0 min 0 W/m 6,4 km/h (2 Bft) 97,83 %
15.09.2021 05:40 19,0 C 18,3 C 17,3 C 94 % 1010,5 hPa 0,0 l/m 0 min 0 min 0 W/m 6,4 km/h (2 Bft) 93,75 %
15.09.2021 05:42 19,0 C 18,3 C 17,3 C 94 % 1010,5 hPa 0,0 l/m 0 min 0 min 0 W/m 3,2 km/h (1 Bft) 97,87 %
15.09.2021 05:44 19,0 C 18,3 C 17,3 C 94 % 1010,4 hPa 0,0 l/m 0 min 0 min 0 W/m 3,2 km/h (1 Bft) 95,65 %
15.09.2021 05:46 19,0 C 18,3 C 17,3 C 94 % 1010,3 hPa 0,0 l/m 0 min 0 min 0 W/m 3,2 km/h (1 Bft) 95,74 %
15.09.2021 05:48 19,0 C 18,3 C 17,3 C 94 % 1010,3 hPa 0,0 l/m 0 min 0 min 0 W/m 3,2 km/h (1 Bft) 95,74 %
15.09.2021 05:50 19,0 C 18,3 C 17,3 C 94 % 1010,2 hPa 0,0 l/m 0 min 0 min 0 W/m 0,0 km/h (0 Bft) 95,74 %
15.09.2021 05:52 19,0 C 18,3 C 16,7 C 94 % 1010,2 hPa 0,0 l/m 0 min 2 min 0 W/m 3,2 km/h (1 Bft) 93,62 %
15.09.2021 05:54 19,0 C 18,3 C 16,7 C 94 % 1010,2 hPa 0,0 l/m 0 min 0 min 0 W/m 3,2 km/h (1 Bft) 95,74 %
15.09.2021 05:56 19,0 C 18,3 C 16,7 C 94 % 1010,2 hPa 0,0 l/m 0 min 2 min 0 W/m 3,2 km/h (1 Bft) 91,30 %
15.09.2021 05:58 19,0 C 18,3 C 16,7 C 94 % 1010,2 hPa 0,0 l/m 0 min 2 min 0 W/m 6,4 km/h (2 Bft) 92,00 %
15.09.2021 06:00 19,0 C 18,3 C 16,7 C 94 % 1010,2 hPa 0,0 l/m 0 min 2 min 0 W/m 6,4 km/h (2 Bft) 93,48 %
15.09.2021 06:02 19,0 C 18,3 C 16,7 C 94 % 1010,2 hPa 0,0 l/m 0 min 2 min 0 W/m 0,0 km/h (0 Bft) 93,62 %
15.09.2021 06:04 19,0 C 17,8 C 16,7 C 94 % 1010,1 hPa 0,2 l/m 0 min 2 min 0 W/m 3,2 km/h (1 Bft) 93,62 %
15.09.2021 06:08 19,0 C 17,8 C 16,7 C 94 % 1010,2 hPa 0,0 l/m 0 min 4 min 0 W/m 3,2 km/h (1 Bft) 93,68 %
15.09.2021 06:10 19,0 C 17,8 C 16,7 C 94 % 1010,2 hPa 0,0 l/m 0 min 2 min 0 W/m 3,2 km/h (1 Bft) 95,74 %
15.09.2021 06:12 19,0 C 17,8 C 16,7 C 94 % 1010,2 hPa 0,0 l/m 0 min 0 min 0 W/m 3,2 km/h (1 Bft) 95,65 %
15.09.2021 06:14 19,0 C 17,8 C 16,7 C 94 % 1010,1 hPa 0,0 l/m 0 min 0 min 0 W/m 3,2 km/h (1 Bft) 95,74 %
15.09.2021 06:16 19,0 C 17,8 C 16,7 C 95 % 1010,1 hPa 0,0 l/m 0 min 0 min 0 W/m 3,2 km/h (1 Bft) 91,49 %
15.09.2021 06:18 19,0 C 17,8 C 16,7 C 95 % 1010,1 hPa 0,0 l/m 0 min 2 min 0 W/m 3,2 km/h (1 Bft) 95,74 %
15.09.2021 06:20 19,0 C 17,8 C 16,7 C 95 % 1010,1 hPa 0,0 l/m 0 min 2 min 0 W/m 3,2 km/h (1 Bft) 95,74 %
15.09.2021 06:22 19,0 C 17,8 C 16,7 C 95 % 1010,1 hPa 0,0 l/m 0 min 2 min 0 W/m 3,2 km/h (1 Bft) 95,74 %
15.09.2021 06:24 19,0 C 17,8 C 16,7 C 95 % 1010,1 hPa 0,0 l/m 0 min 0 min 0 W/m 3,2 km/h (1 Bft) 97,83 %
15.09.2021 06:26 19,0 C 17,8 C 16,7 C 95 % 1010,2 hPa 0,0 l/m 0 min 0 min 0 W/m 3,2 km/h (1 Bft) 97,87 %
15.09.2021 06:28 19,0 C 17,8 C 16,7 C 95 % 1010,2 hPa 0,0 l/m 0 min 0 min 0 W/m 6,4 km/h (2 Bft) 97,87 %
15.09.2021 06:30 19,0 C 17,8 C 16,7 C 95 % 1010,2 hPa 0,0 l/m 0 min 0 min 0 W/m 3,2 km/h (1 Bft) 97,87 %
15.09.2021 06:32 19,0 C 17,8 C 16,7 C 95 % 1010,1 hPa 0,0 l/m 0 min 0 min 0 W/m 3,2 km/h (1 Bft) 97,87 %
15.09.2021 06:34 19,0 C 17,8 C 16,7 C 95 % 1010,1 hPa 0,0 l/m 0 min 0 min 0 W/m 3,2 km/h (1 Bft) 97,83 %
15.09.2021 06:36 19,0 C 17,8 C 16,7 C 95 % 1010,0 hPa 0,0 l/m 0 min 0 min 0 W/m 3,2 km/h (1 Bft) 97,87 %
15.09.2021 06:38 19,0 C 17,8 C 16,7 C 95 % 1010,1 hPa 0,0 l/m 0 min 0 min 0 W/m 3,2 km/h (1 Bft) 97,37 %
15.09.2021 06:40 18,9 C 17,8 C 16,7 C 95 % 1010,1 hPa 0,0 l/m 0 min 0 min 0 W/m 3,2 km/h (1 Bft) 97,87 %
15.09.2021 06:42 19,0 C 17,8 C 16,7 C 95 % 1010,1 hPa 0,0 l/m 0 min 0 min 0 W/m 3,2 km/h (1 Bft) 97,87 %
15.09.2021 06:44 19,0 C 17,8 C 16,7 C 95 % 1010,1 hPa 0,0 l/m 0 min 0 min 0 W/m 6,4 km/h (2 Bft) 97,83 %
15.09.2021 06:46 18,9 C 18,3 C 16,7 C 95 % 1010,1 hPa 0,0 l/m 0 min 2 min 0 W/m 0,0 km/h (0 Bft) 100,00 %
15.09.2021 06:48 19,0 C 18,3 C 16,7 C 95 % 1010,1 hPa 0,0 l/m 0 min 2 min 0 W/m 3,2 km/h (1 Bft) 100,00 %
15.09.2021 06:50 19,0 C 18,3 C 16,7 C 95 % 1010,1 hPa 0,0 l/m 0 min 2 min 0 W/m 3,2 km/h (1 Bft) 97,60 %
15.09.2021 06:55 19,0 C 17,8 C 16,7 C 95 % 1010,0 hPa 0,0 l/m 0 min 5 min 0 W/m 3,2 km/h (1 Bft) 100,00 %
15.09.2021 07:00 19,0 C 17,8 C 16,7 C 95 % 1009,9 hPa 0,2 l/m 0 min 0 min 0 W/m 0,0 km/h (0 Bft) 100,00 %
15.09.2021 07:05 19,0 C 17,8 C 16,7 C 95 % 1009,9 hPa 0,0 l/m 0 min 5 min 0 W/m 0,0 km/h (0 Bft) 100,00 %
15.09.2021 07:10 19,0 C 17,8 C 16,7 C 95 % 1009,9 hPa 0,0 l/m 0 min 0 min 0 W/m 3,2 km/h (1 Bft) 100,00 %
15.09.2021 07:15 19,0 C 17,8 C 16,7 C 95 % 1009,9 hPa 0,4 l/m 0 min 5 min 0 W/m 3,2 km/h (1 Bft) 100,00 %
15.09.2021 07:20 19,0 C 17,8 C 16,7 C 95 % 1010,1 hPa 1,6 l/m 0 min 5 min 0 W/m 3,2 km/h (1 Bft) 100,00 %
15.09.2021 07:25 19,0 C 17,2 C 16,7 C 96 % 1010,0 hPa 0,0 l/m 0 min 0 min 0 W/m 3,2 km/h (1 Bft) 100,00 %
15.09.2021 07:30 19,0 C 17,8 C 16,7 C 96 % 1010,0 hPa 0,0 l/m 0 min 5 min 0 W/m 3,2 km/h (1 Bft) 100,00 %
15.09.2021 07:35 18,9 C 17,2 C 16,7 C 96 % 1010,1 hPa 0,2 l/m 0 min 0 min 0 W/m 0,0 km/h (0 Bft) 100,00 %
15.09.2021 07:40 19,0 C 17,8 C 16,7 C 96 % 1010,1 hPa 0,0 l/m 0 min 0 min 3 W/m 0,0 km/h (0 Bft) 100,00 %
15.09.2021 07:45 18,9 C 17,8 C 16,7 C 96 % 1010,1 hPa 0,0 l/m 0 min 0 min 0 W/m 3,2 km/h (1 Bft) 100,00 %
15.09.2021 07:50 18,9 C 17,8 C 16,7 C 96 % 1010,2 hPa 0,0 l/m 0 min 0 min 1 W/m 3,2 km/h (1 Bft) 100,00 %
15.09.2021 07:55 18,9 C 17,8 C 16,7 C 96 % 1010,2 hPa 0,0 l/m 0 min 0 min 6 W/m 6,4 km/h (2 Bft) 100,00 %
15.09.2021 08:00 18,9 C 17,8 C 16,7 C 96 % 1010,2 hPa 0,0 l/m 0 min 0 min 7 W/m 3,2 km/h (1 Bft) 99,12 %
15.09.2021 08:05 18,9 C 17,8 C 16,7 C 96 % 1010,3 hPa 0,0 l/m 0 min 0 min 0 W/m 3,2 km/h (1 Bft) 97,37 %
15.09.2021 08:10 18,9 C 17,8 C 16,7 C 96 % 1010,2 hPa 0,0 l/m 0 min 0 min 5 W/m 0,0 km/h (0 Bft) 99,12 %
15.09.2021 08:15 18,9 C 17,8 C 16,7 C 96 % 1010,2 hPa 0,0 l/m 0 min 5 min 6 W/m 3,2 km/h (1 Bft) 99,12 %
15.09.2021 08:20 18,9 C 17,8 C 16,7 C 96 % 1010,2 hPa 0,2 l/m 0 min 5 min 2 W/m 3,2 km/h (1 Bft) 99,12 %
15.09.2021 08:25 18,8 C 17,8 C 16,7 C 96 % 1010,1 hPa 0,0 l/m 0 min 5 min 7 W/m 0,0 km/h (0 Bft) 99,12 %
15.09.2021 08:32 18,8 C 17,8 C 16,7 C 96 % 1010,2 hPa 0,2 l/m 0 min 0 min 26 W/m 0,0 km/h (0 Bft) 97,80 %
15.09.2021 08:34 18,8 C 17,8 C 17,3 C 96 % 1010,1 hPa 0,0 l/m 0 min 0 min 32 W/m 0,0 km/h (0 Bft) 96,57 %
15.09.2021 08:36 18,8 C 17,8 C 17,3 C 97 % 1010,1 hPa 0,0 l/m 0 min 0 min 37 W/m 0,0 km/h (0 Bft) 97,87 %
15.09.2021 08:38 18,8 C 17,8 C 17,3 C 97 % 1010,1 hPa 0,0 l/m 0 min 0 min 34 W/m 0,0 km/h (0 Bft) 95,65 %
15.09.2021 08:40 18,8 C 17,8 C 17,3 C 97 % 1010,1 hPa 0,0 l/m 0 min 0 min 33 W/m 0,0 km/h (0 Bft) 97,87 %
15.09.2021 08:42 18,9 C 17,8 C 17,3 C 97 % 1010,1 hPa 0,0 l/m 0 min 0 min 33 W/m 0,0 km/h (0 Bft) 97,87 %
15.09.2021 08:44 18,9 C 17,8 C 17,3 C 97 % 1010,1 hPa 0,0 l/m 0 min 0 min 34 W/m 0,0 km/h (0 Bft) 97,87 %
15.09.2021 08:46 18,9 C 17,8 C 17,3 C 97 % 1010,1 hPa 0,0 l/m 0 min 0 min 27 W/m 0,0 km/h (0 Bft) 97,87 %
15.09.2021 08:48 18,9 C 17,8 C 17,3 C 97 % 1010,1 hPa 0,0 l/m 0 min 0 min 18 W/m 0,0 km/h (0 Bft) 95,74 %
15.09.2021 08:50 18,9 C 17,8 C 17,3 C 97 % 1010,2 hPa 0,0 l/m 0 min 0 min 14 W/m 0,0 km/h (0 Bft) 95,65 %
15.09.2021 08:52 18,9 C 17,8 C 17,3 C 97 % 1010,2 hPa 0,0 l/m 0 min 0 min 16 W/m 0,0 km/h (0 Bft) 95,74 %
15.09.2021 08:54 18,9 C 17,8 C 17,3 C 97 % 1010,2 hPa 0,0 l/m 0 min 0 min 18 W/m 0,0 km/h (0 Bft) 55,32 %
15.09.2021 08:56 18,9 C 17,8 C 17,3 C 97 % 1010,1 hPa 0,0 l/m 0 min 0 min 18 W/m 0,0 km/h (0 Bft) 97,37 %
15.09.2021 08:58 18,9 C 17,8 C 17,3 C 97 % 1010,2 hPa 0,0 l/m 0 min 0 min 19 W/m 0,0 km/h (0 Bft) 97,87 %
15.09.2021 09:00 18,9 C 17,8 C 17,3 C 97 % 1010,1 hPa 0,0 l/m 0 min 0 min 18 W/m 0,0 km/h (0 Bft) 97,87 %
15.09.2021 09:02 18,9 C 17,8 C 17,3 C 97 % 1010,1 hPa 0,0 l/m 0 min 0 min 16 W/m 3,2 km/h (1 Bft) 95,65 %
15.09.2021 09:04 18,9 C 17,8 C 17,3 C 97 % 1010,2 hPa 0,0 l/m 0 min 0 min 14 W/m 0,0 km/h (0 Bft) 95,74 %
15.09.2021 09:06 18,9 C 17,8 C 17,3 C 97 % 1010,1 hPa 0,0 l/m 0 min 0 min 12 W/m 3,2 km/h (1 Bft) 97,87 %
15.09.2021 09:08 18,9 C 17,8 C 17,3 C 97 % 1010,1 hPa 0,0 l/m 0 min 0 min 14 W/m 0,0 km/h (0 Bft) 95,74 %
15.09.2021 09:10 18,9 C 17,8 C 17,3 C 97 % 1010,1 hPa 0,0 l/m 0 min 0 min 14 W/m 3,2 km/h (1 Bft) 97,87 %
15.09.2021 09:12 18,9 C 17,8 C 17,3 C 97 % 1010,1 hPa 0,0 l/m 0 min 0 min 13 W/m 3,2 km/h (1 Bft) 97,87 %
15.09.2021 09:14 18,9 C 17,8 C 17,3 C 97 % 1010,1 hPa 0,0 l/m 0 min 0 min 14 W/m 3,2 km/h (1 Bft) 95,65 %
15.09.2021 09:16 18,9 C 17,8 C 17,3 C 97 % 1010,1 hPa 0,0 l/m 0 min 0 min 18 W/m 3,2 km/h (1 Bft) 95,74 %
15.09.2021 09:18 18,9 C 17,8 C 17,3 C 97 % 1010,1 hPa 0,0 l/m 0 min 0 min 19 W/m 0,0 km/h (0 Bft) 97,87 %
15.09.2021 09:20 18,9 C 17,8 C 17,3 C 97 % 1010,1 hPa 0,0 l/m 0 min 0 min 17 W/m 0,0 km/h (0 Bft) 97,87 %
15.09.2021 09:22 18,9 C 17,8 C 17,3 C 97 % 1010,2 hPa 0,0 l/m 0 min 0 min 18 W/m 3,2 km/h (1 Bft) 97,87 %
15.09.2021 09:24 18,9 C 17,8 C 17,3 C 97 % 1010,2 hPa 0,0 l/m 0 min 0 min 18 W/m 0,0 km/h (0 Bft) 95,74 %
15.09.2021 09:26 18,9 C 17,8 C 17,3 C 97 % 1010,1 hPa 0,0 l/m 0 min 0 min 16 W/m 0,0 km/h (0 Bft) 97,83 %
15.09.2021 09:28 18,9 C 17,8 C 17,3 C 97 % 1010,1 hPa 0,0 l/m 0 min 0 min 16 W/m 0,0 km/h (0 Bft) 95,74 %
15.09.2021 09:30 18,9 C 17,8 C 17,3 C 97 % 1010,1 hPa 0,0 l/m 0 min 0 min 18 W/m 0,0 km/h (0 Bft) 97,87 %
15.09.2021 09:32 18,9 C 17,8 C 17,3 C 97 % 1010,2 hPa 0,0 l/m 0 min 0 min 18 W/m 0,0 km/h (0 Bft) 95,74 %
15.09.2021 09:34 18,9 C 17,8 C 17,3 C 97 % 1010,1 hPa 0,0 l/m 0 min 0 min 16 W/m 3,2 km/h (1 Bft) 97,87 %
15.09.2021 09:36 18,9 C 17,8 C 17,3 C 97 % 1010,1 hPa 0,0 l/m 0 min 0 min 15 W/m 3,2 km/h (1 Bft) 97,87 %
15.09.2021 09:38 18,9 C 17,8 C 17,3 C 97 % 1010,1 hPa 0,0 l/m 0 min 0 min 19 W/m 0,0 km/h (0 Bft) 97,83 %
15.09.2021 09:40 18,9 C 17,8 C 17,3 C 97 % 1010,1 hPa 0,0 l/m 0 min 0 min 18 W/m 0,0 km/h (0 Bft) 100,00 %
15.09.2021 09:42 18,9 C 17,8 C 17,3 C 97 % 1010,1 hPa 0,0 l/m 0 min 0 min 17 W/m 0,0 km/h (0 Bft) 95,74 %
15.09.2021 09:44 18,9 C 17,8 C 17,3 C 97 % 1010,1 hPa 0,0 l/m 0 min 0 min 19 W/m 0,0 km/h (0 Bft) 97,87 %
15.09.2021 09:46 18,9 C 17,8 C 17,3 C 97 % 1010,2 hPa 0,0 l/m 0 min 0 min 19 W/m 3,2 km/h (1 Bft) 95,74 %
15.09.2021 09:48 18,9 C 17,8 C 17,3 C 97 % 1010,2 hPa 0,0 l/m 0 min 2 min 22 W/m 3,2 km/h (1 Bft) 97,87 %
15.09.2021 09:50 18,9 C 17,8 C 17,3 C 97 % 1010,3 hPa 0,0 l/m 0 min 2 min 27 W/m 3,2 km/h (1 Bft) 97,83 %
15.09.2021 09:52 18,9 C 17,8 C 17,3 C 97 % 1010,3 hPa 0,0 l/m 0 min 2 min 24 W/m 3,2 km/h (1 Bft) 97,87 %
15.09.2021 09:54 18,9 C 17,8 C 17,3 C 97 % 1010,3 hPa 0,2 l/m 0 min 2 min 22 W/m 3,2 km/h (1 Bft) 97,87 %
15.09.2021 09:56 18,9 C 17,8 C 17,3 C 97 % 1010,3 hPa 0,0 l/m 0 min 2 min 23 W/m 3,2 km/h (1 Bft) 97,87 %
15.09.2021 09:58 18,9 C 17,8 C 17,3 C 97 % 1010,2 hPa 0,2 l/m 0 min 2 min 25 W/m 3,2 km/h (1 Bft) 97,87 %
15.09.2021 10:00 18,9 C 17,8 C 17,3 C 97 % 1010,3 hPa 0,0 l/m 0 min 2 min 33 W/m 3,2 km/h (1 Bft) 98,21 %
15.09.2021 10:02 18,9 C 17,8 C 17,3 C 97 % 1010,3 hPa 0,0 l/m 0 min 0 min 39 W/m 3,2 km/h (1 Bft) 97,73 %
15.09.2021 10:04 18,9 C 17,8 C 17,3 C 97 % 1010,3 hPa 0,0 l/m 0 min 0 min 34 W/m 3,2 km/h (1 Bft) 95,74 %
15.09.2021 10:06 18,9 C 18,3 C 17,3 C 97 % 1010,3 hPa 0,0 l/m 0 min 0 min 31 W/m 3,2 km/h (1 Bft) 94,29 %
15.09.2021 10:08 18,9 C 18,3 C 17,3 C 97 % 1010,3 hPa 0,0 l/m 0 min 0 min 41 W/m 3,2 km/h (1 Bft) 97,87 %
15.09.2021 10:10 19,0 C 18,3 C 17,8 C 97 % 1010,3 hPa 0,0 l/m 0 min 2 min 56 W/m 6,4 km/h (2 Bft) 98,21 %
15.09.2021 10:12 19,0 C 18,3 C 17,8 C 97 % 1010,2 hPa 0,0 l/m 0 min 2 min 61 W/m 3,2 km/h (1 Bft) 97,87 %
15.09.2021 10:14 19,0 C 18,3 C 17,8 C 97 % 1010,3 hPa 0,0 l/m 0 min 0 min 72 W/m 3,2 km/h (1 Bft) 95,74 %
15.09.2021 10:16 19,0 C 18,3 C 17,8 C 98 % 1010,3 hPa 0,0 l/m 0 min 0 min 79 W/m 0,0 km/h (0 Bft) 97,87 %
15.09.2021 10:18 19,0 C 18,3 C 17,8 C 98 % 1010,3 hPa 0,0 l/m 0 min 0 min 82 W/m 6,4 km/h (2 Bft) 97,92 %
15.09.2021 10:20 19,1 C 18,3 C 17,8 C 98 % 1010,3 hPa 0,0 l/m 0 min 0 min 76 W/m 3,2 km/h (1 Bft) 100,00 %
15.09.2021 10:22 19,1 C 18,3 C 17,8 C 98 % 1010,3 hPa 0,0 l/m 0 min 0 min 62 W/m 6,4 km/h (2 Bft) 100,00 %
15.09.2021 10:24 19,1 C 18,3 C 17,8 C 98 % 1010,3 hPa 0,0 l/m 0 min 0 min 61 W/m 3,2 km/h (1 Bft) 97,87 %
15.09.2021 10:26 19,1 C 18,3 C 17,8 C 98 % 1010,3 hPa 0,0 l/m 0 min 0 min 60 W/m 9,7 km/h (2 Bft) 93,62 %
15.09.2021 10:28 19,1 C 18,3 C 17,8 C 98 % 1010,3 hPa 0,0 l/m 0 min 0 min 56 W/m 3,2 km/h (1 Bft) 93,62 %
15.09.2021 10:30 19,1 C 18,3 C 17,8 C 98 % 1010,3 hPa 0,0 l/m 0 min 0 min 57 W/m 9,7 km/h (2 Bft) 100,00 %
15.09.2021 10:32 19,2 C 18,3 C 17,8 C 98 % 1010,3 hPa 0,0 l/m 0 min 0 min 54 W/m 3,2 km/h (1 Bft) 100,00 %
15.09.2021 10:34 19,2 C 18,3 C 17,8 C 98 % 1010,3 hPa 0,0 l/m 0 min 0 min 56 W/m 3,2 km/h (1 Bft) 97,83 %
15.09.2021 10:36 19,2 C 18,3 C 17,8 C 98 % 1010,3 hPa 0,0 l/m 0 min 0 min 50 W/m 6,4 km/h (2 Bft) 100,00 %
15.09.2021 10:38 19,2 C 18,3 C 17,8 C 98 % 1010,3 hPa 0,0 l/m 0 min 0 min 50 W/m 9,7 km/h (2 Bft) 98,31 %
15.09.2021 10:40 19,2 C 18,3 C 17,8 C 98 % 1010,4 hPa 0,0 l/m 0 min 0 min 53 W/m 19,3 km/h (3 Bft) 100,00 %
15.09.2021 10:42 19,2 C 18,3 C 17,8 C 98 % 1010,4 hPa 0,0 l/m 0 min 0 min 53 W/m 19,3 km/h (3 Bft) 100,00 %
15.09.2021 10:44 19,2 C 18,3 C 17,8 C 98 % 1010,4 hPa 0,0 l/m 0 min 0 min 42 W/m 19,3 km/h (3 Bft) 100,00 %
15.09.2021 10:46 19,2 C 18,3 C 17,8 C 98 % 1010,5 hPa 0,0 l/m 0 min 0 min 47 W/m 32,2 km/h (5 Bft) 95,65 %
15.09.2021 10:48 19,2 C 18,3 C 17,8 C 98 % 1010,4 hPa 0,0 l/m 0 min 0 min 47 W/m 6,4 km/h (2 Bft) 100,00 %
15.09.2021 10:50 19,2 C 18,3 C 17,8 C 98 % 1010,5 hPa 0,0 l/m 0 min 0 min 51 W/m 12,9 km/h (3 Bft) 97,87 %
15.09.2021 10:52 19,2 C 18,3 C 17,8 C 98 % 1010,5 hPa 0,0 l/m 0 min 0 min 49 W/m 6,4 km/h (2 Bft) 86,79 %
15.09.2021 10:54 19,2 C 18,3 C 17,8 C 98 % 1010,5 hPa 0,0 l/m 0 min 0 min 67 W/m 12,9 km/h (3 Bft) 95,74 %
15.09.2021 10:56 19,2 C 18,3 C 17,8 C 98 % 1010,5 hPa 0,0 l/m 0 min 0 min 82 W/m 22,5 km/h (4 Bft) 85,11 %
15.09.2021 10:58 19,2 C 18,9 C 17,8 C 98 % 1010,5 hPa 0,0 l/m 0 min 0 min 97 W/m 12,9 km/h (3 Bft) 89,36 %
15.09.2021 11:00 19,2 C 18,9 C 17,8 C 98 % 1010,5 hPa 0,0 l/m 0 min 0 min 121 W/m 6,4 km/h (2 Bft) 95,65 %
15.09.2021 11:02 19,3 C 18,9 C 17,8 C 98 % 1010,6 hPa 0,0 l/m 0 min 0 min 112 W/m 12,9 km/h (3 Bft) 89,36 %
15.09.2021 11:04 19,3 C 18,9 C 17,8 C 98 % 1010,6 hPa 0,0 l/m 0 min 0 min 61 W/m 6,4 km/h (2 Bft) 88,10 %
15.09.2021 11:06 19,3 C 18,9 C 17,8 C 98 % 1010,6 hPa 0,0 l/m 0 min 0 min 55 W/m 12,9 km/h (3 Bft) 80,85 %
15.09.2021 11:08 19,3 C 18,9 C 17,8 C 98 % 1010,5 hPa 0,0 l/m 0 min 0 min 62 W/m 12,9 km/h (3 Bft) 91,49 %
15.09.2021 11:10 19,3 C 18,9 C 17,8 C 98 % 1010,5 hPa 0,0 l/m 0 min 0 min 87 W/m 6,4 km/h (2 Bft) 78,26 %
15.09.2021 11:12 19,3 C 18,9 C 17,8 C 98 % 1010,5 hPa 0,0 l/m 0 min 0 min 100 W/m 6,4 km/h (2 Bft) 93,62 %
15.09.2021 11:14 19,3 C 18,9 C 17,8 C 98 % 1010,5 hPa 0,0 l/m 0 min 0 min 116 W/m 6,4 km/h (2 Bft) 93,62 %
15.09.2021 11:16 19,3 C 18,9 C 17,8 C 98 % 1010,6 hPa 0,0 l/m 0 min 0 min 116 W/m 6,4 km/h (2 Bft) 97,87 %
15.09.2021 11:18 19,3 C 18,9 C 17,8 C 98 % 1010,5 hPa 0,0 l/m 0 min 0 min 128 W/m 6,4 km/h (2 Bft) 97,87 %
15.09.2021 11:20 19,3 C 18,9 C 17,8 C 98 % 1010,5 hPa 0,0 l/m 0 min 0 min 141 W/m 6,4 km/h (2 Bft) 97,87 %
15.09.2021 11:22 19,3 C 18,9 C 17,8 C 98 % 1010,4 hPa 0,0 l/m 0 min 0 min 170 W/m 9,7 km/h (2 Bft) 97,83 %
15.09.2021 11:24 19,4 C 18,9 C 18,4 C 98 % 1010,4 hPa 0,0 l/m 0 min 0 min 182 W/m 3,2 km/h (1 Bft) 97,87 %
15.09.2021 11:26 19,4 C 18,9 C 18,4 C 98 % 1010,5 hPa 0,0 l/m 0 min 2 min 175 W/m 6,4 km/h (2 Bft) 93,62 %
15.09.2021 11:28 19,5 C 19,4 C 18,4 C 98 % 1010,5 hPa 0,0 l/m 0 min 0 min 172 W/m 6,4 km/h (2 Bft) 97,87 %
15.09.2021 11:30 19,5 C 19,4 C 18,4 C 98 % 1010,5 hPa 0,0 l/m 0 min 0 min 228 W/m 3,2 km/h (1 Bft) 93,62 %
15.09.2021 11:32 19,5 C 19,4 C 18,4 C 98 % 1010,4 hPa 0,0 l/m 0 min 0 min 212 W/m 9,7 km/h (2 Bft) 97,87 %
15.09.2021 11:34 19,5 C 19,4 C 18,4 C 98 % 1010,4 hPa 0,0 l/m 0 min 0 min 221 W/m 6,4 km/h (2 Bft) 95,65 %
15.09.2021 11:36 19,6 C 19,4 C 18,4 C 98 % 1010,4 hPa 0,0 l/m 0 min 0 min 222 W/m 6,4 km/h (2 Bft) 95,74 %
15.09.2021 11:38 19,6 C 20,0 C 18,4 C 98 % 1010,5 hPa 0,0 l/m 0 min 0 min 227 W/m 6,4 km/h (2 Bft) 97,87 %
15.09.2021 11:40 19,6 C 20,0 C 18,9 C 98 % 1010,5 hPa 0,0 l/m 2 min 0 min 358 W/m 6,4 km/h (2 Bft) 100,00 %
15.09.2021 11:42 19,8 C 20,6 C 18,9 C 98 % 1010,4 hPa 0,0 l/m 2 min 0 min 417 W/m 12,9 km/h (3 Bft) 95,74 %
15.09.2021 11:44 19,8 C 21,1 C 18,9 C 98 % 1010,4 hPa 0,0 l/m 2 min 0 min 465 W/m 9,7 km/h (2 Bft) 95,74 %
15.09.2021 11:46 19,9 C 21,1 C 19,5 C 98 % 1010,4 hPa 0,0 l/m 2 min 0 min 452 W/m 9,7 km/h (2 Bft) 95,65 %
15.09.2021 11:48 19,9 C 20,6 C 18,9 C 98 % 1010,5 hPa 0,0 l/m 0 min 0 min 289 W/m 9,7 km/h (2 Bft) 95,74 %
15.09.2021 11:50 19,9 C 20,6 C 18,9 C 98 % 1010,5 hPa 0,0 l/m 0 min 0 min 182 W/m 6,4 km/h (2 Bft) 95,74 %
15.09.2021 11:52 19,9 C 20,0 C 18,9 C 98 % 1010,6 hPa 0,0 l/m 0 min 0 min 135 W/m 16,1 km/h (3 Bft) 95,74 %
15.09.2021 11:54 19,9 C 20,0 C 18,9 C 98 % 1010,6 hPa 0,0 l/m 0 min 0 min 85 W/m 9,7 km/h (2 Bft) 93,62 %
15.09.2021 11:56 19,9 C 20,0 C 18,4 C 98 % 1010,6 hPa 0,0 l/m 0 min 0 min 89 W/m 6,4 km/h (2 Bft) 91,30 %
15.09.2021 11:58 19,9 C 19,4 C 18,9 C 98 % 1010,6 hPa 0,0 l/m 0 min 0 min 86 W/m 9,7 km/h (2 Bft) 95,74 %
15.09.2021 12:00 19,9 C 19,4 C 18,4 C 98 % 1010,6 hPa 0,0 l/m 0 min 0 min 74 W/m 3,2 km/h (1 Bft) 95,74 %
15.09.2021 12:02 19,8 C 19,4 C 18,4 C 98 % 1010,6 hPa 0,0 l/m 0 min 0 min 69 W/m 3,2 km/h (1 Bft) 92,45 %
15.09.2021 12:04 19,9 C 19,4 C 18,4 C 98 % 1010,6 hPa 0,0 l/m 0 min 0 min 95 W/m 16,1 km/h (3 Bft) 95,74 %
15.09.2021 12:08 19,8 C 19,4 C 18,4 C 98 % 1010,6 hPa 0,0 l/m 0 min 0 min 118 W/m 9,7 km/h (2 Bft) 95,83 %
15.09.2021 12:10 19,8 C 19,4 C 18,4 C 98 % 1010,6 hPa 0,0 l/m 0 min 2 min 129 W/m 6,4 km/h (2 Bft) 95,65 %
15.09.2021 12:12 19,8 C 19,4 C 18,4 C 98 % 1010,6 hPa 0,0 l/m 0 min 2 min 126 W/m 9,7 km/h (2 Bft) 95,74 %
15.09.2021 12:14 19,9 C 19,4 C 18,4 C 97 % 1010,6 hPa 0,0 l/m 0 min 2 min 128 W/m 6,4 km/h (2 Bft) 93,62 %
15.09.2021 12:16 19,9 C 19,4 C 18,4 C 97 % 1010,7 hPa 0,0 l/m 0 min 2 min 124 W/m 6,4 km/h (2 Bft) 97,87 %
15.09.2021 12:18 19,9 C 19,4 C 18,4 C 97 % 1010,6 hPa 0,2 l/m 0 min 2 min 124 W/m 3,2 km/h (1 Bft) 97,87 %
15.09.2021 12:20 19,9 C 19,4 C 18,4 C 97 % 1010,7 hPa 0,0 l/m 0 min 0 min 146 W/m 6,4 km/h (2 Bft) 97,87 %
15.09.2021 12:22 19,9 C 19,4 C 18,4 C 97 % 1010,6 hPa 0,0 l/m 0 min 0 min 143 W/m 6,4 km/h (2 Bft) 91,30 %
15.09.2021 12:24 19,9 C 19,4 C 18,4 C 97 % 1010,6 hPa 0,0 l/m 0 min 0 min 170 W/m 6,4 km/h (2 Bft) 97,87 %
15.09.2021 12:26 19,9 C 20,0 C 18,4 C 97 % 1010,7 hPa 0,0 l/m 0 min 0 min 187 W/m 12,9 km/h (3 Bft) 97,87 %
15.09.2021 12:28 20,0 C 20,0 C 18,9 C 97 % 1010,6 hPa 0,0 l/m 0 min 0 min 188 W/m 12,9 km/h (3 Bft) 97,87 %
15.09.2021 12:30 20,0 C 20,0 C 18,9 C 97 % 1010,6 hPa 0,0 l/m 0 min 0 min 208 W/m 6,4 km/h (2 Bft) 97,87 %
15.09.2021 12:32 20,0 C 20,0 C 18,9 C 97 % 1010,6 hPa 0,0 l/m 0 min 0 min 181 W/m 6,4 km/h (2 Bft) 97,87 %
15.09.2021 12:34 20,0 C 20,0 C 18,9 C 97 % 1010,7 hPa 0,0 l/m 0 min 0 min 143 W/m 6,4 km/h (2 Bft) 97,83 %
15.09.2021 12:36 20,0 C 20,0 C 18,9 C 97 % 1010,7 hPa 0,0 l/m 0 min 0 min 120 W/m 6,4 km/h (2 Bft) 97,87 %
15.09.2021 12:38 20,0 C 20,0 C 18,9 C 97 % 1010,7 hPa 0,0 l/m 0 min 0 min 117 W/m 6,4 km/h (2 Bft) 100,00 %
15.09.2021 12:40 20,1 C 20,0 C 18,9 C 97 % 1010,6 hPa 0,0 l/m 0 min 0 min 117 W/m 3,2 km/h (1 Bft) 100,00 %
15.09.2021 12:42 20,1 C 20,0 C 18,9 C 97 % 1010,7 hPa 0,0 l/m 0 min 0 min 115 W/m 6,4 km/h (2 Bft) 100,00 %
15.09.2021 12:44 20,1 C 20,0 C 18,9 C 97 % 1010,6 hPa 0,0 l/m 0 min 0 min 104 W/m 9,7 km/h (2 Bft) 100,00 %
15.09.2021 12:46 20,0 C 20,0 C 18,4 C 97 % 1010,7 hPa 0,0 l/m 0 min 0 min 85 W/m 9,7 km/h (2 Bft) 97,83 %
15.09.2021 12:48 20,0 C 19,4 C 18,4 C 97 % 1010,7 hPa 0,0 l/m 0 min 0 min 71 W/m 6,4 km/h (2 Bft) 100,00 %
15.09.2021 12:50 20,0 C 19,4 C 18,4 C 97 % 1010,7 hPa 0,0 l/m 0 min 0 min 71 W/m 6,4 km/h (2 Bft) 100,00 %
15.09.2021 12:52 20,0 C 19,4 C 18,4 C 97 % 1010,8 hPa 0,0 l/m 0 min 0 min 81 W/m 6,4 km/h (2 Bft) 100,00 %
15.09.2021 12:54 20,0 C 19,4 C 18,4 C 97 % 1010,8 hPa 0,0 l/m 0 min 0 min 80 W/m 6,4 km/h (2 Bft) 97,87 %
15.09.2021 12:56 20,0 C 19,4 C 18,4 C 97 % 1010,8 hPa 0,0 l/m 0 min 0 min 58 W/m 6,4 km/h (2 Bft) 100,00 %
15.09.2021 12:58 20,0 C 19,4 C 18,4 C 97 % 1010,8 hPa 0,0 l/m 0 min 0 min 47 W/m 3,2 km/h (1 Bft) 97,83 %
15.09.2021 13:00 20,0 C 19,4 C 18,4 C 96 % 1010,9 hPa 0,0 l/m 0 min 0 min 61 W/m 12,9 km/h (3 Bft) 97,87 %
15.09.2021 13:02 20,0 C 19,4 C 18,4 C 96 % 1010,8 hPa 0,0 l/m 0 min 0 min 85 W/m 6,4 km/h (2 Bft) 100,00 %
15.09.2021 13:04 20,0 C 19,4 C 18,4 C 96 % 1010,8 hPa 0,0 l/m 0 min 0 min 102 W/m 3,2 km/h (1 Bft) 100,00 %
15.09.2021 13:06 20,0 C 19,4 C 18,4 C 96 % 1010,8 hPa 0,0 l/m 0 min 0 min 115 W/m 6,4 km/h (2 Bft) 100,00 %
15.09.2021 13:08 20,0 C 19,4 C 18,4 C 97 % 1010,7 hPa 0,0 l/m 0 min 0 min 125 W/m 6,4 km/h (2 Bft) 100,00 %
15.09.2021 13:10 20,0 C 19,4 C 18,4 C 97 % 1010,7 hPa 0,0 l/m 0 min 0 min 146 W/m 9,7 km/h (2 Bft) 100,00 %
15.09.2021 13:12 20,0 C 20,0 C 18,4 C 97 % 1010,7 hPa 0,0 l/m 0 min 0 min 169 W/m 6,4 km/h (2 Bft) 100,00 %
15.09.2021 13:14 20,0 C 20,0 C 18,9 C 97 % 1010,6 hPa 0,0 l/m 0 min 0 min 184 W/m 3,2 km/h (1 Bft) 97,87 %
15.09.2021 13:16 20,1 C 20,0 C 18,9 C 97 % 1010,7 hPa 0,0 l/m 0 min 0 min 196 W/m 3,2 km/h (1 Bft) 100,00 %
15.09.2021 13:18 20,1 C 20,0 C 18,9 C 97 % 1010,7 hPa 0,0 l/m 0 min 0 min 194 W/m 6,4 km/h (2 Bft) 100,00 %
15.09.2021 13:20 20,1 C 20,0 C 18,9 C 97 % 1010,7 hPa 0,0 l/m 0 min 0 min 183 W/m 6,4 km/h (2 Bft) 100,00 %
15.09.2021 13:22 20,2 C 20,0 C 18,9 C 97 % 1010,7 hPa 0,0 l/m 0 min 0 min 167 W/m 6,4 km/h (2 Bft) 100,00 %
15.09.2021 13:24 20,3 C 20,0 C 18,9 C 96 % 1010,8 hPa 0,0 l/m 0 min 0 min 144 W/m 3,2 km/h (1 Bft) 100,00 %
15.09.2021 13:26 20,3 C 20,0 C 18,9 C 96 % 1010,8 hPa 0,0 l/m 0 min 0 min 116 W/m 6,4 km/h (2 Bft) 100,00 %
15.09.2021 13:28 20,3 C 20,0 C 18,9 C 96 % 1010,8 hPa 0,0 l/m 0 min 0 min 82 W/m 3,2 km/h (1 Bft) 100,00 %
15.09.2021 13:30 20,2 C 20,0 C 18,9 C 96 % 1010,8 hPa 0,0 l/m 0 min 0 min 87 W/m 6,4 km/h (2 Bft) 100,00 %
15.09.2021 13:32 20,2 C 20,0 C 18,9 C 96 % 1010,8 hPa 0,0 l/m 0 min 0 min 113 W/m 6,4 km/h (2 Bft) 100,00 %
15.09.2021 13:34 20,2 C 20,0 C 18,9 C 96 % 1010,8 hPa 0,0 l/m 0 min 0 min 139 W/m 6,4 km/h (2 Bft) 95,65 %
15.09.2021 13:36 20,2 C 20,0 C 18,9 C 96 % 1010,9 hPa 0,0 l/m 0 min 0 min 185 W/m 3,2 km/h (1 Bft) 95,74 %
15.09.2021 13:38 20,2 C 20,0 C 18,9 C 96 % 1010,8 hPa 0,0 l/m 0 min 0 min 212 W/m 12,9 km/h (3 Bft) 97,87 %
15.09.2021 13:40 20,2 C 20,0 C 18,9 C 96 % 1010,8 hPa 0,0 l/m 0 min 0 min 228 W/m 9,7 km/h (2 Bft) 97,87 %
15.09.2021 13:42 20,3 C 20,0 C 18,9 C 96 % 1010,7 hPa 0,0 l/m 0 min 0 min 232 W/m 6,4 km/h (2 Bft) 97,87 %
15.09.2021 13:44 20,3 C 20,6 C 18,9 C 96 % 1010,7 hPa 0,0 l/m 0 min 0 min 241 W/m 6,4 km/h (2 Bft) 94,74 %
15.09.2021 13:46 20,3 C 20,6 C 18,9 C 96 % 1010,8 hPa 0,0 l/m 0 min 0 min 254 W/m 6,4 km/h (2 Bft) 95,74 %
15.09.2021 13:48 20,3 C 20,6 C 18,9 C 96 % 1010,7 hPa 0,0 l/m 0 min 0 min 263 W/m 9,7 km/h (2 Bft) 93,62 %
15.09.2021 13:50 20,3 C 20,6 C 18,9 C 96 % 1010,7 hPa 0,0 l/m 0 min 0 min 270 W/m 6,4 km/h (2 Bft) 95,74 %
15.09.2021 13:52 20,4 C 20,6 C 18,9 C 96 % 1010,7 hPa 0,0 l/m 0 min 0 min 283 W/m 6,4 km/h (2 Bft) 95,74 %
15.09.2021 13:54 20,4 C 21,1 C 18,9 C 96 % 1010,7 hPa 0,0 l/m 0 min 0 min 284 W/m 6,4 km/h (2 Bft) 95,74 %
15.09.2021 13:56 20,5 C 21,1 C 18,9 C 96 % 1010,6 hPa 0,0 l/m 0 min 0 min 302 W/m 12,9 km/h (3 Bft) 95,65 %
15.09.2021 13:58 20,5 C 21,1 C 18,9 C 96 % 1010,5 hPa 0,0 l/m 2 min 0 min 338 W/m 12,9 km/h (3 Bft) 95,74 %
15.09.2021 14:00 20,5 C 21,1 C 19,5 C 96 % 1010,5 hPa 0,0 l/m 0 min 0 min 311 W/m 6,4 km/h (2 Bft) 93,62 %
15.09.2021 14:02 20,6 C 21,7 C 19,5 C 96 % 1010,5 hPa 0,0 l/m 0 min 0 min 303 W/m 3,2 km/h (1 Bft) 95,74 %
15.09.2021 14:04 20,7 C 21,7 C 19,5 C 95 % 1010,4 hPa 0,0 l/m 0 min 0 min 316 W/m 6,4 km/h (2 Bft) 95,74 %
15.09.2021 14:06 20,8 C 21,7 C 19,5 C 96 % 1010,5 hPa 0,0 l/m 2 min 0 min 342 W/m 16,1 km/h (3 Bft) 93,62 %
15.09.2021 14:08 20,8 C 21,7 C 19,5 C 95 % 1010,5 hPa 0,0 l/m 2 min 0 min 341 W/m 6,4 km/h (2 Bft) 95,65 %
15.09.2021 14:10 20,8 C 21,7 C 19,5 C 95 % 1010,5 hPa 0,0 l/m 2 min 0 min 341 W/m 12,9 km/h (3 Bft) 95,74 %
15.09.2021 14:12 20,9 C 21,7 C 18,9 C 95 % 1010,5 hPa 0,0 l/m 0 min 0 min 313 W/m 6,4 km/h (2 Bft) 95,74 %
15.09.2021 14:14 20,9 C 21,7 C 18,9 C 94 % 1010,5 hPa 0,0 l/m 2 min 0 min 341 W/m 6,4 km/h (2 Bft) 93,62 %
15.09.2021 14:16 20,9 C 21,7 C 19,5 C 94 % 1010,4 hPa 0,0 l/m 2 min 0 min 340 W/m 6,4 km/h (2 Bft) 95,74 %
15.09.2021 14:18 21,0 C 21,7 C 19,5 C 94 % 1010,4 hPa 0,0 l/m 2 min 0 min 320 W/m 3,2 km/h (1 Bft) 95,65 %
15.09.2021 14:20 21,0 C 21,7 C 19,5 C 94 % 1010,5 hPa 0,0 l/m 0 min 0 min 287 W/m 6,4 km/h (2 Bft) 100,00 %
15.09.2021 14:22 21,1 C 21,7 C 19,5 C 94 % 1010,5 hPa 0,0 l/m 0 min 0 min 259 W/m 9,7 km/h (2 Bft) 100,00 %
15.09.2021 14:24 21,1 C 21,7 C 19,5 C 94 % 1010,6 hPa 0,0 l/m 0 min 0 min 224 W/m 6,4 km/h (2 Bft) 100,00 %
15.09.2021 14:26 21,2 C 21,7 C 19,5 C 93 % 1010,6 hPa 0,0 l/m 0 min 0 min 218 W/m 6,4 km/h (2 Bft) 97,87 %
15.09.2021 14:28 21,1 C 21,7 C 18,9 C 93 % 1010,6 hPa 0,0 l/m 0 min 0 min 242 W/m 12,9 km/h (3 Bft) 100,00 %
15.09.2021 14:30 21,2 C 21,7 C 18,9 C 93 % 1010,6 hPa 0,0 l/m 2 min 0 min 330 W/m 12,9 km/h (3 Bft) 100,00 %
15.09.2021 14:32 21,3 C 21,7 C 18,9 C 93 % 1010,6 hPa 0,0 l/m 0 min 0 min 287 W/m 6,4 km/h (2 Bft) 97,87 %
15.09.2021 14:34 21,3 C 21,7 C 19,5 C 92 % 1010,6 hPa 0,0 l/m 0 min 0 min 269 W/m 6,4 km/h (2 Bft) 100,00 %
15.09.2021 14:36 21,3 C 21,7 C 19,5 C 92 % 1010,6 hPa 0,0 l/m 0 min 0 min 291 W/m 6,4 km/h (2 Bft) 97,87 %
15.09.2021 14:38 21,4 C 21,7 C 19,5 C 92 % 1010,6 hPa 0,0 l/m 2 min 0 min 316 W/m 16,1 km/h (3 Bft) 100,00 %
15.09.2021 14:40 21,4 C 21,7 C 19,5 C 92 % 1010,6 hPa 0,0 l/m 2 min 0 min 338 W/m 6,4 km/h (2 Bft) 97,87 %
15.09.2021 14:42 21,4 C 22,2 C 19,5 C 92 % 1010,7 hPa 0,0 l/m 2 min 0 min 345 W/m 16,1 km/h (3 Bft) 100,00 %
15.09.2021 14:44 21,5 C 22,2 C 19,5 C 92 % 1010,6 hPa 0,0 l/m 2 min 0 min 361 W/m 6,4 km/h (2 Bft) 100,00 %
15.09.2021 14:46 21,5 C 22,2 C 19,5 C 91 % 1010,6 hPa 0,0 l/m 2 min 0 min 325 W/m 9,7 km/h (2 Bft) 97,87 %
15.09.2021 14:48 21,5 C 22,2 C 19,5 C 91 % 1010,6 hPa 0,0 l/m 2 min 0 min 351 W/m 9,7 km/h (2 Bft) 97,87 %
15.09.2021 14:50 21,6 C 22,8 C 19,5 C 91 % 1010,6 hPa 0,0 l/m 2 min 0 min 460 W/m 6,4 km/h (2 Bft) 97,87 %
15.09.2021 14:52 21,7 C 23,9 C 19,5 C 91 % 1010,6 hPa 0,0 l/m 2 min 0 min 731 W/m 9,7 km/h (2 Bft) 100,00 %
15.09.2021 14:54 21,8 C 23,9 C 19,5 C 91 % 1010,6 hPa 0,0 l/m 2 min 0 min 528 W/m 6,4 km/h (2 Bft) 100,00 %
15.09.2021 14:56 21,9 C 23,3 C 19,5 C 91 % 1010,5 hPa 0,0 l/m 0 min 0 min 300 W/m 16,1 km/h (3 Bft) 97,87 %
15.09.2021 14:58 21,9 C 23,9 C 19,5 C 89 % 1010,5 hPa 0,0 l/m 2 min 0 min 646 W/m 6,4 km/h (2 Bft) 97,87 %
15.09.2021 15:00 22,0 C 24,4 C 19,5 C 89 % 1010,5 hPa 0,0 l/m 2 min 0 min 625 W/m 6,4 km/h (2 Bft) 95,74 %
15.09.2021 15:02 22,1 C 23,9 C 19,5 C 88 % 1010,5 hPa 0,0 l/m 2 min 0 min 540 W/m 12,9 km/h (3 Bft) 97,92 %
15.09.2021 15:04 22,1 C 23,9 C 19,5 C 88 % 1010,5 hPa 0,0 l/m 2 min 0 min 428 W/m 9,7 km/h (2 Bft) 97,87 %
15.09.2021 15:06 22,3 C 23,9 C 19,5 C 88 % 1010,5 hPa 0,0 l/m 2 min 0 min 609 W/m 12,9 km/h (3 Bft) 97,83 %
15.09.2021 15:08 22,3 C 23,9 C 19,5 C 87 % 1010,5 hPa 0,0 l/m 2 min 0 min 358 W/m 16,1 km/h (3 Bft) 97,87 %
15.09.2021 15:10 22,3 C 23,9 C 19,5 C 87 % 1010,5 hPa 0,0 l/m 2 min 0 min 467 W/m 6,4 km/h (2 Bft) 97,87 %
15.09.2021 15:12 22,4 C 23,9 C 19,5 C 87 % 1010,6 hPa 0,0 l/m 2 min 0 min 649 W/m 12,9 km/h (3 Bft) 95,74 %
15.09.2021 15:14 22,5 C 23,3 C 19,5 C 87 % 1010,6 hPa 0,0 l/m 2 min 0 min 520 W/m 6,4 km/h (2 Bft) 97,87 %
15.09.2021 15:16 22,5 C 23,3 C 19,5 C 86 % 1010,6 hPa 0,0 l/m 0 min 0 min 292 W/m 9,7 km/h (2 Bft) 95,74 %
15.09.2021 15:18 22,5 C 22,8 C 19,5 C 86 % 1010,6 hPa 0,0 l/m 0 min 0 min 210 W/m 6,4 km/h (2 Bft) 97,83 %
15.09.2021 15:20 22,5 C 22,8 C 20,0 C 86 % 1010,6 hPa 0,0 l/m 0 min 0 min 131 W/m 3,2 km/h (1 Bft) 97,87 %
15.09.2021 15:22 22,4 C 22,2 C 20,0 C 86 % 1010,6 hPa 0,0 l/m 0 min 0 min 101 W/m 6,4 km/h (2 Bft) 95,74 %
15.09.2021 15:24 22,4 C 22,2 C 20,0 C 86 % 1010,6 hPa 0,0 l/m 0 min 0 min 106 W/m 12,9 km/h (3 Bft) 97,87 %
15.09.2021 15:26 22,3 C 21,7 C 20,0 C 86 % 1010,6 hPa 0,0 l/m 0 min 0 min 114 W/m 6,4 km/h (2 Bft) 97,87 %
15.09.2021 15:28 22,1 C 21,7 C 20,0 C 86 % 1010,6 hPa 0,0 l/m 0 min 0 min 99 W/m 6,4 km/h (2 Bft) 97,87 %
15.09.2021 15:30 22,1 C 21,1 C 20,0 C 87 % 1010,6 hPa 0,0 l/m 0 min 0 min 82 W/m 9,7 km/h (2 Bft) 95,65 %
15.09.2021 15:32 22,0 C 21,1 C 20,0 C 87 % 1010,6 hPa 0,0 l/m 0 min 0 min 100 W/m 12,9 km/h (3 Bft) 97,87 %
15.09.2021 15:34 22,0 C 21,7 C 20,0 C 87 % 1010,7 hPa 0,0 l/m 0 min 0 min 218 W/m 6,4 km/h (2 Bft) 95,74 %
15.09.2021 15:36 21,9 C 22,2 C 20,0 C 88 % 1010,6 hPa 0,0 l/m 2 min 0 min 288 W/m 9,7 km/h (2 Bft) 97,87 %
15.09.2021 15:38 21,9 C 22,8 C 20,0 C 88 % 1010,6 hPa 0,0 l/m 2 min 0 min 361 W/m 16,1 km/h (3 Bft) 97,87 %
15.09.2021 15:40 21,9 C 23,3 C 20,6 C 88 % 1010,6 hPa 0,0 l/m 2 min 0 min 571 W/m 9,7 km/h (2 Bft) 97,87 %
15.09.2021 15:42 22,0 C 23,3 C 20,6 C 88 % 1010,6 hPa 0,0 l/m 2 min 0 min 568 W/m 12,9 km/h (3 Bft) 97,83 %
15.09.2021 15:44 22,2 C 23,9 C 20,6 C 88 % 1010,6 hPa 0,0 l/m 2 min 0 min 710 W/m 6,4 km/h (2 Bft) 95,74 %
15.09.2021 15:46 22,3 C 23,9 C 21,1 C 88 % 1010,7 hPa 0,0 l/m 2 min 0 min 642 W/m 22,5 km/h (4 Bft) 97,87 %
15.09.2021 15:48 22,3 C 22,8 C 20,6 C 86 % 1010,7 hPa 0,0 l/m 2 min 0 min 368 W/m 22,5 km/h (4 Bft) 95,74 %
15.09.2021 15:50 22,3 C 22,8 C 20,6 C 85 % 1010,7 hPa 0,0 l/m 0 min 0 min 205 W/m 6,4 km/h (2 Bft) 95,74 %
15.09.2021 15:52 22,2 C 22,2 C 20,6 C 85 % 1010,7 hPa 0,0 l/m 0 min 0 min 194 W/m 12,9 km/h (3 Bft) 97,87 %
15.09.2021 15:54 22,1 C 22,2 C 20,6 C 85 % 1010,7 hPa 0,0 l/m 0 min 0 min 198 W/m 29,0 km/h (5 Bft) 97,83 %
15.09.2021 15:56 22,1 C 22,2 C 20,6 C 85 % 1010,8 hPa 0,0 l/m 0 min 0 min 195 W/m 16,1 km/h (3 Bft) 97,87 %
15.09.2021 15:58 22,0 C 21,7 C 20,6 C 86 % 1010,8 hPa 0,0 l/m 0 min 0 min 200 W/m 9,7 km/h (2 Bft) 97,87 %
15.09.2021 16:00 22,0 C 21,7 C 20,6 C 86 % 1010,7 hPa 0,0 l/m 0 min 0 min 220 W/m 22,5 km/h (4 Bft) 97,87 %
15.09.2021 16:02 21,9 C 21,1 C 20,0 C 87 % 1010,8 hPa 0,0 l/m 0 min 0 min 190 W/m 16,1 km/h (3 Bft) 97,87 %
15.09.2021 16:04 21,8 C 21,1 C 20,0 C 87 % 1010,8 hPa 0,0 l/m 0 min 0 min 185 W/m 6,4 km/h (2 Bft) 95,74 %
15.09.2021 16:06 21,7 C 21,1 C 20,0 C 87 % 1010,9 hPa 0,0 l/m 0 min 0 min 190 W/m 12,9 km/h (3 Bft) 93,48 %
15.09.2021 16:08 21,6 C 21,1 C 20,0 C 87 % 1010,9 hPa 0,0 l/m 0 min 0 min 167 W/m 12,9 km/h (3 Bft) 95,74 %
15.09.2021 16:10 21,6 C 21,1 C 20,0 C 87 % 1010,9 hPa 0,0 l/m 0 min 0 min 224 W/m 19,3 km/h (3 Bft) 95,74 %
15.09.2021 16:12 21,5 C 21,1 C 20,0 C 87 % 1010,9 hPa 0,0 l/m 0 min 0 min 219 W/m 16,1 km/h (3 Bft) 95,74 %
15.09.2021 16:14 21,4 C 21,1 C 20,0 C 87 % 1011,0 hPa 0,0 l/m 0 min 0 min 141 W/m 16,1 km/h (3 Bft) 95,74 %
15.09.2021 16:16 21,3 C 21,1 C 20,0 C 87 % 1011,0 hPa 0,0 l/m 0 min 0 min 128 W/m 19,3 km/h (3 Bft) 95,92 %
15.09.2021 16:18 21,2 C 20,6 C 19,5 C 87 % 1011,0 hPa 0,0 l/m 0 min 0 min 135 W/m 16,1 km/h (3 Bft) 95,74 %
15.09.2021 16:20 21,1 C 20,6 C 19,5 C 87 % 1011,0 hPa 0,0 l/m 0 min 0 min 158 W/m 19,3 km/h (3 Bft) 93,62 %
15.09.2021 16:22 21,1 C 21,1 C 19,5 C 87 % 1011,0 hPa 0,0 l/m 0 min 0 min 201 W/m 16,1 km/h (3 Bft) 93,62 %
15.09.2021 16:24 21,1 C 21,7 C 20,0 C 87 % 1011,1 hPa 0,0 l/m 2 min 0 min 269 W/m 12,9 km/h (3 Bft) 95,74 %
15.09.2021 16:26 21,1 C 21,7 C 20,0 C 86 % 1011,0 hPa 0,0 l/m 2 min 0 min 297 W/m 19,3 km/h (3 Bft) 95,74 %
15.09.2021 16:28 21,2 C 21,1 C 20,0 C 86 % 1011,0 hPa 0,0 l/m 0 min 0 min 233 W/m 19,3 km/h (3 Bft) 97,83 %
15.09.2021 16:30 21,2 C 21,1 C 20,0 C 86 % 1011,0 hPa 0,0 l/m 0 min 0 min 229 W/m 12,9 km/h (3 Bft) 95,74 %
15.09.2021 16:32 21,1 C 21,1 C 19,5 C 86 % 1011,0 hPa 0,0 l/m 0 min 0 min 203 W/m 19,3 km/h (3 Bft) 95,74 %
15.09.2021 16:34 21,1 C 20,6 C 19,5 C 86 % 1011,1 hPa 0,0 l/m 0 min 0 min 162 W/m 19,3 km/h (3 Bft) 97,87 %
15.09.2021 16:36 21,1 C 20,6 C 19,5 C 86 % 1011,1 hPa 0,0 l/m 0 min 0 min 172 W/m 19,3 km/h (3 Bft) 97,87 %
15.09.2021 16:38 21,0 C 20,6 C 19,5 C 86 % 1011,0 hPa 0,0 l/m 0 min 0 min 201 W/m 19,3 km/h (3 Bft) 97,87 %
15.09.2021 16:40 20,9 C 20,6 C 19,5 C 86 % 1011,1 hPa 0,0 l/m 0 min 0 min 168 W/m 16,1 km/h (3 Bft) 95,65 %
15.09.2021 16:42 20,9 C 20,6 C 19,5 C 86 % 1011,0 hPa 0,0 l/m 0 min 0 min 125 W/m 12,9 km/h (3 Bft) 97,87 %
15.09.2021 16:44 20,8 C 20,6 C 19,5 C 86 % 1011,0 hPa 0,0 l/m 0 min 0 min 105 W/m 9,7 km/h (2 Bft) 97,87 %
15.09.2021 16:46 20,8 C 20,0 C 19,5 C 86 % 1011,2 hPa 0,0 l/m 0 min 0 min 131 W/m 16,1 km/h (3 Bft) 97,87 %
15.09.2021 16:48 20,7 C 20,0 C 19,5 C 86 % 1011,0 hPa 0,0 l/m 0 min 0 min 133 W/m 16,1 km/h (3 Bft) 97,87 %
15.09.2021 16:50 20,6 C 20,0 C 18,9 C 86 % 1011,1 hPa 0,0 l/m 0 min 0 min 143 W/m 19,3 km/h (3 Bft) 97,87 %
15.09.2021 16:52 20,6 C 20,6 C 19,5 C 86 % 1011,1 hPa 0,0 l/m 0 min 0 min 159 W/m 9,7 km/h (2 Bft) 100,00 %
15.09.2021 16:54 20,6 C 20,6 C 19,5 C 86 % 1011,2 hPa 0,0 l/m 0 min 0 min 160 W/m 19,3 km/h (3 Bft) 100,00 %
15.09.2021 16:56 20,6 C 20,6 C 19,5 C 86 % 1011,1 hPa 0,0 l/m 0 min 0 min 158 W/m 16,1 km/h (3 Bft) 97,87 %
15.09.2021 16:58 20,6 C 20,6 C 18,9 C 85 % 1011,2 hPa 0,0 l/m 0 min 0 min 172 W/m 12,9 km/h (3 Bft) 100,00 %
15.09.2021 17:00 20,6 C 20,6 C 19,5 C 86 % 1011,2 hPa 0,0 l/m 0 min 0 min 190 W/m 9,7 km/h (2 Bft) 100,00 %
15.09.2021 17:02 20,6 C 21,1 C 19,5 C 86 % 1011,2 hPa 0,0 l/m 2 min 0 min 268 W/m 12,9 km/h (3 Bft) 100,00 %
15.09.2021 17:04 20,6 C 21,7 C 19,5 C 86 % 1011,2 hPa 0,0 l/m 2 min 0 min 267 W/m 16,1 km/h (3 Bft) 100,00 %
15.09.2021 17:06 20,7 C 22,8 C 19,5 C 86 % 1011,2 hPa 0,0 l/m 2 min 0 min 401 W/m 16,1 km/h (3 Bft) 97,87 %
15.09.2021 17:08 20,8 C 23,3 C 19,5 C 85 % 1011,2 hPa 0,0 l/m 2 min 0 min 417 W/m 22,5 km/h (4 Bft) 100,00 %
15.09.2021 17:10 20,9 C 23,3 C 19,5 C 85 % 1011,3 hPa 0,0 l/m 2 min 0 min 382 W/m 25,7 km/h (4 Bft) 97,87 %
15.09.2021 17:12 20,9 C 23,3 C 19,5 C 84 % 1011,3 hPa 0,0 l/m 2 min 0 min 346 W/m 12,9 km/h (3 Bft) 100,00 %
15.09.2021 17:14 20,9 C 23,3 C 18,9 C 85 % 1011,2 hPa 0,0 l/m 2 min 0 min 313 W/m 19,3 km/h (3 Bft) 100,00 %
15.09.2021 17:16 20,9 C 23,9 C 18,9 C 85 % 1011,2 hPa 0,0 l/m 2 min 0 min 339 W/m 12,9 km/h (3 Bft) 100,00 %
15.09.2021 17:18 20,9 C 23,9 C 18,9 C 85 % 1011,3 hPa 0,0 l/m 2 min 0 min 359 W/m 12,9 km/h (3 Bft) 100,00 %
15.09.2021 17:20 20,8 C 22,8 C 18,9 C 85 % 1011,3 hPa 0,0 l/m 2 min 0 min 343 W/m 22,5 km/h (4 Bft) 100,00 %
15.09.2021 17:22 20,8 C 21,7 C 18,9 C 85 % 1011,4 hPa 0,0 l/m 0 min 0 min 155 W/m 19,3 km/h (3 Bft) 100,00 %
15.09.2021 17:24 20,6 C 20,6 C 18,9 C 84 % 1011,4 hPa 0,0 l/m 0 min 0 min 122 W/m 22,5 km/h (4 Bft) 100,00 %
15.09.2021 17:26 20,5 C 20,6 C 18,9 C 84 % 1011,4 hPa 0,0 l/m 0 min 0 min 104 W/m 25,7 km/h (4 Bft) 100,00 %
15.09.2021 17:28 20,4 C 20,0 C 18,4 C 83 % 1011,4 hPa 0,0 l/m 0 min 0 min 101 W/m 12,9 km/h (3 Bft) 100,00 %
15.09.2021 17:30 20,3 C 20,0 C 18,4 C 83 % 1011,4 hPa 0,0 l/m 0 min 0 min 122 W/m 12,9 km/h (3 Bft) 100,00 %
15.09.2021 17:32 20,3 C 19,4 C 18,4 C 83 % 1011,5 hPa 0,0 l/m 0 min 0 min 136 W/m 12,9 km/h (3 Bft) 100,00 %
15.09.2021 17:34 20,2 C 20,0 C 18,4 C 84 % 1011,5 hPa 0,0 l/m 0 min 0 min 142 W/m 12,9 km/h (3 Bft) 100,00 %
15.09.2021 17:36 20,1 C 20,0 C 18,4 C 84 % 1011,5 hPa 0,0 l/m 0 min 0 min 134 W/m 12,9 km/h (3 Bft) 100,00 %
15.09.2021 17:38 20,1 C 20,0 C 18,4 C 84 % 1011,5 hPa 0,0 l/m 0 min 0 min 121 W/m 9,7 km/h (2 Bft) 100,00 %
15.09.2021 17:40 20,1 C 20,0 C 18,4 C 83 % 1011,4 hPa 0,0 l/m 0 min 0 min 129 W/m 12,9 km/h (3 Bft) 100,00 %
15.09.2021 17:42 20,1 C 20,0 C 18,4 C 83 % 1011,5 hPa 0,0 l/m 0 min 0 min 126 W/m 12,9 km/h (3 Bft) 100,00 %
15.09.2021 17:44 20,1 C 20,0 C 18,4 C 83 % 1011,5 hPa 0,0 l/m 0 min 0 min 113 W/m 6,4 km/h (2 Bft) 100,00 %
15.09.2021 17:46 20,1 C 20,0 C 18,4 C 83 % 1011,5 hPa 0,0 l/m 0 min 0 min 102 W/m 9,7 km/h (2 Bft) 100,00 %
15.09.2021 17:48 20,1 C 20,0 C 18,4 C 83 % 1011,5 hPa 0,0 l/m 0 min 0 min 102 W/m 9,7 km/h (2 Bft) 100,00 %
15.09.2021 17:50 20,1 C 21,7 C 18,4 C 83 % 1011,5 hPa 0,0 l/m 2 min 0 min 220 W/m 12,9 km/h (3 Bft) 100,00 %
15.09.2021 17:52 20,1 C 22,8 C 18,9 C 84 % 1011,6 hPa 0,0 l/m 2 min 0 min 343 W/m 9,7 km/h (2 Bft) 97,83 %
15.09.2021 17:54 20,3 C 23,3 C 18,9 C 83 % 1011,6 hPa 0,0 l/m 2 min 0 min 327 W/m 12,9 km/h (3 Bft) 97,87 %
15.09.2021 17:56 20,4 C 23,9 C 18,9 C 83 % 1011,6 hPa 0,0 l/m 2 min 0 min 260 W/m 9,7 km/h (2 Bft) 97,87 %
15.09.2021 17:58 20,5 C 23,3 C 18,9 C 82 % 1011,6 hPa 0,0 l/m 2 min 0 min 241 W/m 12,9 km/h (3 Bft) 95,74 %
15.09.2021 18:00 20,6 C 23,3 C 18,9 C 82 % 1011,6 hPa 0,0 l/m 2 min 0 min 222 W/m 16,1 km/h (3 Bft) 95,74 %
15.09.2021 18:02 20,6 C 22,2 C 18,9 C 81 % 1011,7 hPa 0,0 l/m 0 min 0 min 98 W/m 9,7 km/h (2 Bft) 95,74 %
15.09.2021 18:04 20,6 C 21,1 C 18,9 C 81 % 1011,7 hPa 0,0 l/m 0 min 0 min 61 W/m 12,9 km/h (3 Bft) 97,83 %
15.09.2021 18:08 20,5 C 20,0 C 18,4 C 82 % 1011,8 hPa 0,0 l/m 0 min 0 min 58 W/m 6,4 km/h (2 Bft) 98,02 %
15.09.2021 18:10 20,4 C 19,4 C 18,4 C 82 % 1011,8 hPa 0,0 l/m 0 min 0 min 53 W/m 6,4 km/h (2 Bft) 95,74 %
15.09.2021 18:12 20,3 C 19,4 C 18,4 C 82 % 1011,8 hPa 0,0 l/m 0 min 0 min 56 W/m 12,9 km/h (3 Bft) 95,74 %
15.09.2021 18:14 20,3 C 19,4 C 18,4 C 82 % 1011,8 hPa 0,0 l/m 0 min 0 min 54 W/m 16,1 km/h (3 Bft) 97,87 %
15.09.2021 18:16 20,2 C 19,4 C 18,4 C 82 % 1011,8 hPa 0,0 l/m 0 min 0 min 53 W/m 6,4 km/h (2 Bft) 95,65 %
15.09.2021 18:18 20,1 C 20,6 C 18,4 C 82 % 1011,8 hPa 0,0 l/m 0 min 0 min 104 W/m 6,4 km/h (2 Bft) 93,62 %
15.09.2021 18:20 20,1 C 21,7 C 18,4 C 82 % 1011,9 hPa 0,0 l/m 2 min 0 min 183 W/m 6,4 km/h (2 Bft) 95,74 %
15.09.2021 18:22 20,2 C 22,2 C 18,4 C 82 % 1011,9 hPa 0,0 l/m 2 min 0 min 213 W/m 6,4 km/h (2 Bft) 93,62 %
15.09.2021 18:24 20,3 C 22,2 C 18,9 C 83 % 1011,8 hPa 0,0 l/m 2 min 0 min 157 W/m 6,4 km/h (2 Bft) 95,74 %
15.09.2021 18:26 20,3 C 22,8 C 18,9 C 82 % 1011,8 hPa 0,0 l/m 2 min 0 min 153 W/m 6,4 km/h (2 Bft) 95,74 %
15.09.2021 18:28 20,4 C 22,8 C 18,9 C 82 % 1011,8 hPa 0,0 l/m 2 min 0 min 146 W/m 12,9 km/h (3 Bft) 95,65 %
15.09.2021 18:30 20,4 C 22,8 C 18,9 C 82 % 1011,8 hPa 0,0 l/m 2 min 0 min 126 W/m 6,4 km/h (2 Bft) 95,74 %
15.09.2021 18:32 20,5 C 22,8 C 18,9 C 82 % 1011,8 hPa 0,0 l/m 2 min 0 min 110 W/m 6,4 km/h (2 Bft) 95,74 %
15.09.2021 18:34 20,5 C 21,7 C 18,9 C 82 % 1011,8 hPa 0,0 l/m 0 min 0 min 77 W/m 9,7 km/h (2 Bft) 95,74 %
15.09.2021 18:36 20,5 C 21,1 C 18,9 C 82 % 1011,9 hPa 0,0 l/m 0 min 0 min 55 W/m 6,4 km/h (2 Bft) 97,87 %
15.09.2021 18:38 20,4 C 20,6 C 18,4 C 82 % 1011,9 hPa 0,0 l/m 0 min 0 min 48 W/m 16,1 km/h (3 Bft) 95,74 %
15.09.2021 18:40 20,4 C 20,0 C 18,4 C 82 % 1012,0 hPa 0,0 l/m 0 min 0 min 59 W/m 12,9 km/h (3 Bft) 95,65 %
15.09.2021 18:42 20,3 C 20,0 C 18,4 C 82 % 1011,9 hPa 0,0 l/m 0 min 0 min 52 W/m 12,9 km/h (3 Bft) 95,74 %
15.09.2021 18:44 20,2 C 20,0 C 18,4 C 82 % 1011,9 hPa 0,0 l/m 0 min 0 min 66 W/m 9,7 km/h (2 Bft) 95,74 %
15.09.2021 18:46 20,1 C 20,0 C 18,4 C 82 % 1011,9 hPa 0,0 l/m 0 min 0 min 53 W/m 9,7 km/h (2 Bft) 95,74 %
15.09.2021 18:48 20,1 C 19,4 C 17,8 C 82 % 1011,9 hPa 0,0 l/m 0 min 0 min 67 W/m 6,4 km/h (2 Bft) 95,74 %
15.09.2021 18:50 20,0 C 20,0 C 17,8 C 83 % 1011,9 hPa 0,0 l/m 2 min 0 min 103 W/m 6,4 km/h (2 Bft) 95,74 %
15.09.2021 18:52 20,0 C 20,0 C 17,8 C 83 % 1011,9 hPa 0,0 l/m 2 min 0 min 92 W/m 9,7 km/h (2 Bft) 93,48 %
15.09.2021 18:54 20,0 C 20,0 C 17,8 C 83 % 1012,0 hPa 0,0 l/m 2 min 0 min 68 W/m 9,7 km/h (2 Bft) 91,49 %
15.09.2021 18:56 20,0 C 19,4 C 17,8 C 83 % 1011,9 hPa 0,0 l/m 0 min 0 min 58 W/m 12,9 km/h (3 Bft) 93,62 %
15.09.2021 18:58 20,0 C 19,4 C 17,8 C 83 % 1011,9 hPa 0,0 l/m 0 min 0 min 44 W/m 9,7 km/h (2 Bft) 95,74 %
15.09.2021 19:00 20,0 C 19,4 C 17,8 C 83 % 1011,9 hPa 0,0 l/m 0 min 0 min 40 W/m 12,9 km/h (3 Bft) 95,74 %
15.09.2021 19:02 19,9 C 19,4 C 17,8 C 83 % 1011,9 hPa 0,0 l/m 0 min 0 min 38 W/m 6,4 km/h (2 Bft) 93,62 %
15.09.2021 19:04 19,9 C 18,9 C 17,8 C 83 % 1011,9 hPa 0,0 l/m 0 min 0 min 33 W/m 6,4 km/h (2 Bft) 95,65 %
15.09.2021 19:06 19,9 C 18,9 C 17,8 C 83 % 1011,9 hPa 0,0 l/m 0 min 0 min 32 W/m 6,4 km/h (2 Bft) 95,74 %
15.09.2021 19:08 19,9 C 18,9 C 17,8 C 84 % 1012,0 hPa 0,0 l/m 0 min 0 min 30 W/m 6,4 km/h (2 Bft) 95,74 %
15.09.2021 19:10 19,8 C 18,9 C 17,8 C 84 % 1012,0 hPa 0,0 l/m 0 min 0 min 30 W/m 6,4 km/h (2 Bft) 97,87 %
15.09.2021 19:12 19,8 C 18,9 C 17,8 C 84 % 1012,0 hPa 0,0 l/m 0 min 0 min 28 W/m 9,7 km/h (2 Bft) 95,74 %
15.09.2021 19:14 19,7 C 18,9 C 17,8 C 84 % 1012,0 hPa 0,0 l/m 0 min 0 min 26 W/m 9,7 km/h (2 Bft) 97,87 %
15.09.2021 19:16 19,7 C 18,9 C 17,3 C 84 % 1012,0 hPa 0,0 l/m 0 min 0 min 23 W/m 6,4 km/h (2 Bft) 97,83 %
15.09.2021 19:18 19,6 C 18,9 C 17,3 C 84 % 1012,0 hPa 0,0 l/m 0 min 0 min 20 W/m 3,2 km/h (1 Bft) 97,87 %
15.09.2021 19:20 19,6 C 18,9 C 17,3 C 84 % 1012,1 hPa 0,0 l/m 0 min 0 min 18 W/m 9,7 km/h (2 Bft) 97,87 %
15.09.2021 19:22 19,5 C 18,3 C 17,3 C 85 % 1012,0 hPa 0,0 l/m 0 min 0 min 16 W/m 3,2 km/h (1 Bft) 95,74 %
15.09.2021 19:24 19,5 C 18,3 C 17,3 C 85 % 1012,0 hPa 0,0 l/m 0 min 0 min 16 W/m 6,4 km/h (2 Bft) 97,87 %
15.09.2021 19:26 19,4 C 18,3 C 17,3 C 85 % 1012,0 hPa 0,0 l/m 0 min 0 min 14 W/m 9,7 km/h (2 Bft) 100,00 %
15.09.2021 19:28 19,4 C 18,3 C 17,3 C 85 % 1012,0 hPa 0,0 l/m 0 min 0 min 12 W/m 3,2 km/h (1 Bft) 100,00 %
15.09.2021 19:30 19,3 C 18,3 C 17,3 C 85 % 1012,0 hPa 0,0 l/m 0 min 0 min 12 W/m 6,4 km/h (2 Bft) 97,87 %
15.09.2021 19:32 19,2 C 18,3 C 17,3 C 85 % 1012,0 hPa 0,0 l/m 0 min 0 min 12 W/m 6,4 km/h (2 Bft) 100,00 %
15.09.2021 19:34 19,2 C 18,3 C 17,3 C 86 % 1012,0 hPa 0,0 l/m 0 min 0 min 10 W/m 3,2 km/h (1 Bft) 100,00 %
15.09.2021 19:36 19,1 C 18,3 C 16,7 C 86 % 1012,1 hPa 0,0 l/m 0 min 0 min 8 W/m 3,2 km/h (1 Bft) 100,00 %
15.09.2021 19:38 19,1 C 17,8 C 16,7 C 86 % 1012,1 hPa 0,0 l/m 0 min 0 min 7 W/m 3,2 km/h (1 Bft) 100,00 %
15.09.2021 19:40 19,1 C 17,8 C 16,7 C 86 % 1012,1 hPa 0,0 l/m 0 min 0 min 7 W/m 6,4 km/h (2 Bft) 97,83 %
15.09.2021 19:42 19,0 C 17,8 C 16,7 C 87 % 1012,2 hPa 0,0 l/m 0 min 0 min 5 W/m 3,2 km/h (1 Bft) 93,62 %
15.09.2021 19:44 19,0 C 17,8 C 16,7 C 87 % 1012,2 hPa 0,0 l/m 0 min 0 min 5 W/m 6,4 km/h (2 Bft) 87,23 %
15.09.2021 19:46 18,9 C 17,8 C 16,7 C 87 % 1012,2 hPa 0,0 l/m 0 min 0 min 5 W/m 6,4 km/h (2 Bft) 100,00 %
15.09.2021 19:50 18,8 C 17,8 C 16,7 C 87 % 1012,2 hPa 0,0 l/m 0 min 0 min 0 W/m 6,4 km/h (2 Bft) 100,00 %
15.09.2021 19:52 18,8 C 17,8 C 16,7 C 87 % 1012,2 hPa 0,0 l/m 0 min 0 min 0 W/m 3,2 km/h (1 Bft) 100,00 %
15.09.2021 19:54 18,8 C 17,8 C 16,7 C 87 % 1012,2 hPa 0,0 l/m 0 min 0 min 0 W/m 6,4 km/h (2 Bft) 97,87 %
15.09.2021 19:56 18,7 C 17,8 C 16,7 C 87 % 1012,2 hPa 0,0 l/m 0 min 0 min 0 W/m 3,2 km/h (1 Bft) 100,00 %
15.09.2021 19:58 18,7 C 17,8 C 16,7 C 87 % 1012,2 hPa 0,0 l/m 0 min 0 min 0 W/m 3,2 km/h (1 Bft) 100,00 %
15.09.2021 20:00 18,7 C 17,8 C 16,7 C 88 % 1012,2 hPa 0,0 l/m 0 min 0 min 0 W/m 6,4 km/h (2 Bft) 100,00 %
15.09.2021 20:02 18,6 C 17,8 C 16,7 C 88 % 1012,3 hPa 0,0 l/m 0 min 0 min 0 W/m 3,2 km/h (1 Bft) 100,00 %
15.09.2021 20:04 18,6 C 17,8 C 16,7 C 88 % 1012,3 hPa 0,0 l/m 0 min 0 min 0 W/m 6,4 km/h (2 Bft) 97,87 %
15.09.2021 20:05 18,6 C 17,8 C 16,7 C 88 % 1012,3 hPa 0,0 l/m 0 min 0 min 0 W/m 6,4 km/h (2 Bft) 100,00 %
15.09.2021 20:10 18,5 C 17,8 C 16,7 C 88 % 1012,4 hPa 0,0 l/m 0 min 0 min 0 W/m 12,9 km/h (3 Bft) 100,00 %
15.09.2021 20:15 18,5 C 17,8 C 16,7 C 88 % 1012,5 hPa 0,0 l/m 0 min 0 min 0 W/m 6,4 km/h (2 Bft) 100,00 %
15.09.2021 20:20 18,5 C 17,8 C 16,7 C 89 % 1012,5 hPa 0,0 l/m 0 min 0 min 0 W/m 6,4 km/h (2 Bft) 96,83 %
15.09.2021 20:22 18,4 C 17,8 C 16,7 C 88 % 1012,4 hPa 0,0 l/m 0 min 0 min 0 W/m 9,7 km/h (2 Bft) 97,87 %
15.09.2021 20:24 18,4 C 17,2 C 16,7 C 89 % 1012,5 hPa 0,0 l/m 0 min 0 min 0 W/m 6,4 km/h (2 Bft) 97,87 %
15.09.2021 20:26 18,4 C 17,2 C 16,7 C 89 % 1012,5 hPa 0,0 l/m 0 min 0 min 0 W/m 3,2 km/h (1 Bft) 97,87 %
15.09.2021 20:28 18,4 C 17,2 C 16,7 C 89 % 1012,5 hPa 0,0 l/m 0 min 0 min 0 W/m 9,7 km/h (2 Bft) 97,83 %
15.09.2021 20:30 18,4 C 17,2 C 16,7 C 89 % 1012,6 hPa 0,0 l/m 0 min 0 min 0 W/m 3,2 km/h (1 Bft) 97,87 %
15.09.2021 20:32 18,4 C 17,2 C 16,7 C 89 % 1012,6 hPa 0,0 l/m 0 min 0 min 0 W/m 3,2 km/h (1 Bft) 95,74 %
15.09.2021 20:34 18,4 C 17,2 C 16,7 C 89 % 1012,6 hPa 0,0 l/m 0 min 0 min 0 W/m 6,4 km/h (2 Bft) 100,00 %
15.09.2021 20:36 18,4 C 17,2 C 16,7 C 89 % 1012,7 hPa 0,0 l/m 0 min 0 min 0 W/m 6,4 km/h (2 Bft) 100,00 %
15.09.2021 20:38 18,4 C 17,8 C 16,7 C 89 % 1012,7 hPa 0,0 l/m 0 min 0 min 0 W/m 3,2 km/h (1 Bft) 100,00 %
15.09.2021 20:40 18,3 C 17,8 C 16,7 C 89 % 1012,8 hPa 0,0 l/m 0 min 0 min 0 W/m 9,7 km/h (2 Bft) 100,00 %
15.09.2021 20:42 18,3 C 17,8 C 16,7 C 89 % 1012,8 hPa 0,0 l/m 0 min 0 min 0 W/m 6,4 km/h (2 Bft) 97,87 %
15.09.2021 20:44 18,3 C 17,8 C 16,7 C 90 % 1012,9 hPa 0,0 l/m 0 min 0 min 0 W/m 12,9 km/h (3 Bft) 100,00 %
15.09.2021 20:46 18,3 C 17,8 C 16,7 C 90 % 1012,9 hPa 0,0 l/m 0 min 0 min 0 W/m 12,9 km/h (3 Bft) 100,00 %
15.09.2021 20:48 18,3 C 17,8 C 16,7 C 90 % 1012,9 hPa 0,0 l/m 0 min 0 min 0 W/m 12,9 km/h (3 Bft) 97,87 %
15.09.2021 20:50 18,3 C 17,8 C 16,7 C 90 % 1013,0 hPa 0,0 l/m 0 min 0 min 0 W/m 12,9 km/h (3 Bft) 100,00 %
15.09.2021 20:52 18,4 C 17,8 C 16,7 C 90 % 1013,0 hPa 0,0 l/m 0 min 0 min 0 W/m 6,4 km/h (2 Bft) 100,00 %
15.09.2021 20:54 18,4 C 17,8 C 16,7 C 90 % 1013,1 hPa 0,0 l/m 0 min 0 min 0 W/m 12,9 km/h (3 Bft) 100,00 %
15.09.2021 20:56 18,4 C 17,8 C 16,7 C 90 % 1013,2 hPa 0,0 l/m 0 min 0 min 0 W/m 9,7 km/h (2 Bft) 100,00 %
15.09.2021 20:58 18,4 C 17,8 C 16,7 C 90 % 1013,2 hPa 0,0 l/m 0 min 0 min 0 W/m 9,7 km/h (2 Bft) 97,44 %
15.09.2021 21:00 18,4 C 17,8 C 16,7 C 90 % 1013,2 hPa 0,0 l/m 0 min 0 min 0 W/m 9,7 km/h (2 Bft) 100,00 %
15.09.2021 21:02 18,4 C 17,8 C 16,7 C 89 % 1013,3 hPa 0,0 l/m 0 min 0 min 0 W/m 16,1 km/h (3 Bft) 100,00 %
15.09.2021 21:04 18,4 C 17,8 C 16,7 C 89 % 1013,3 hPa 0,0 l/m 0 min 0 min 0 W/m 19,3 km/h (3 Bft) 100,00 %
15.09.2021 21:06 18,4 C 17,8 C 16,7 C 89 % 1013,4 hPa 0,0 l/m 0 min 0 min 0 W/m 12,9 km/h (3 Bft) 100,00 %
15.09.2021 21:08 18,4 C 17,8 C 16,7 C 88 % 1013,3 hPa 0,0 l/m 0 min 0 min 0 W/m 25,7 km/h (4 Bft) 97,87 %
15.09.2021 21:10 18,4 C 17,8 C 16,7 C 88 % 1013,4 hPa 0,0 l/m 0 min 0 min 0 W/m 16,1 km/h (3 Bft) 97,87 %
15.09.2021 21:12 18,4 C 17,8 C 16,7 C 88 % 1013,4 hPa 0,0 l/m 0 min 0 min 0 W/m 16,1 km/h (3 Bft) 97,87 %
15.09.2021 21:14 18,4 C 17,8 C 16,7 C 88 % 1013,4 hPa 0,0 l/m 0 min 0 min 0 W/m 16,1 km/h (3 Bft) 97,87 %
15.09.2021 21:16 18,4 C 17,8 C 16,7 C 88 % 1013,5 hPa 0,0 l/m 0 min 0 min 0 W/m 12,9 km/h (3 Bft) 95,74 %
15.09.2021 21:18 18,4 C 17,8 C 16,7 C 88 % 1013,5 hPa 0,0 l/m 0 min 0 min 0 W/m 6,4 km/h (2 Bft) 97,83 %
15.09.2021 21:20 18,4 C 17,8 C 16,7 C 88 % 1013,5 hPa 0,0 l/m 0 min 0 min 0 W/m 9,7 km/h (2 Bft) 95,74 %
15.09.2021 21:22 18,4 C 17,8 C 16,7 C 88 % 1013,6 hPa 0,0 l/m 0 min 0 min 0 W/m 6,4 km/h (2 Bft) 95,74 %
15.09.2021 21:24 18,4 C 17,8 C 16,7 C 88 % 1013,6 hPa 0,0 l/m 0 min 0 min 0 W/m 12,9 km/h (3 Bft) 97,87 %
15.09.2021 21:26 18,4 C 17,8 C 16,7 C 88 % 1013,6 hPa 0,0 l/m 0 min 0 min 0 W/m 9,7 km/h (2 Bft) 95,74 %
15.09.2021 21:28 18,4 C 17,8 C 16,7 C 88 % 1013,6 hPa 0,0 l/m 0 min 0 min 0 W/m 9,7 km/h (2 Bft) 95,65 %
15.09.2021 21:30 18,4 C 17,8 C 16,7 C 88 % 1013,6 hPa 0,0 l/m 0 min 0 min 0 W/m 6,4 km/h (2 Bft) 95,74 %
15.09.2021 21:32 18,4 C 17,8 C 16,7 C 88 % 1013,7 hPa 0,0 l/m 0 min 0 min 0 W/m 9,7 km/h (2 Bft) 95,74 %
15.09.2021 21:34 18,3 C 17,8 C 16,7 C 88 % 1013,7 hPa 0,0 l/m 0 min 0 min 0 W/m 12,9 km/h (3 Bft) 95,74 %
15.09.2021 21:36 18,3 C 17,8 C 16,7 C 88 % 1013,7 hPa 0,0 l/m 0 min 0 min 0 W/m 6,4 km/h (2 Bft) 93,62 %
15.09.2021 21:38 18,3 C 17,8 C 16,7 C 88 % 1013,7 hPa 0,0 l/m 0 min 0 min 0 W/m 9,7 km/h (2 Bft) 93,62 %
15.09.2021 21:40 18,3 C 17,2 C 16,7 C 88 % 1013,8 hPa 0,0 l/m 0 min 0 min 0 W/m 9,7 km/h (2 Bft) 95,65 %
15.09.2021 21:42 18,2 C 17,2 C 16,7 C 87 % 1013,7 hPa 0,0 l/m 0 min 0 min 0 W/m 9,7 km/h (2 Bft) 95,74 %
15.09.2021 21:44 18,2 C 17,2 C 16,1 C 87 % 1013,7 hPa 0,0 l/m 0 min 0 min 0 W/m 12,9 km/h (3 Bft) 95,74 %
15.09.2021 21:46 18,1 C 17,2 C 16,1 C 87 % 1013,8 hPa 0,0 l/m 0 min 0 min 0 W/m 6,4 km/h (2 Bft) 91,49 %
15.09.2021 21:48 18,1 C 17,2 C 16,1 C 87 % 1013,9 hPa 0,0 l/m 0 min 0 min 0 W/m 6,4 km/h (2 Bft) 95,74 %
15.09.2021 21:50 18,1 C 17,2 C 16,1 C 87 % 1013,9 hPa 0,0 l/m 0 min 0 min 0 W/m 6,4 km/h (2 Bft) 95,74 %
15.09.2021 21:52 18,0 C 17,2 C 16,1 C 87 % 1013,9 hPa 0,0 l/m 0 min 0 min 0 W/m 9,7 km/h (2 Bft) 95,65 %
15.09.2021 21:54 18,0 C 17,2 C 16,1 C 87 % 1013,9 hPa 0,0 l/m 0 min 0 min 0 W/m 6,4 km/h (2 Bft) 93,62 %
15.09.2021 21:56 18,0 C 17,2 C 16,1 C 87 % 1014,0 hPa 0,0 l/m 0 min 0 min 0 W/m 16,1 km/h (3 Bft) 93,62 %
15.09.2021 21:58 18,0 C 17,2 C 16,1 C 87 % 1014,0 hPa 0,0 l/m 0 min 0 min 0 W/m 6,4 km/h (2 Bft) 93,62 %
15.09.2021 22:00 18,0 C 17,2 C 16,1 C 87 % 1014,0 hPa 0,0 l/m 0 min 0 min 0 W/m 9,7 km/h (2 Bft) 95,74 %
15.09.2021 22:02 17,9 C 17,2 C 16,1 C 87 % 1014,0 hPa 0,0 l/m 0 min 0 min 0 W/m 6,4 km/h (2 Bft) 95,74 %
15.09.2021 22:04 17,9 C 17,2 C 16,1 C 87 % 1014,0 hPa 0,0 l/m 0 min 0 min 0 W/m 16,1 km/h (3 Bft) 95,65 %
15.09.2021 22:06 17,9 C 17,2 C 16,1 C 87 % 1014,1 hPa 0,0 l/m 0 min 0 min 0 W/m 12,9 km/h (3 Bft) 95,74 %
15.09.2021 22:08 17,8 C 17,2 C 16,1 C 87 % 1014,1 hPa 0,0 l/m 0 min 0 min 0 W/m 9,7 km/h (2 Bft) 95,74 %
15.09.2021 22:10 17,8 C 17,2 C 16,1 C 87 % 1014,1 hPa 0,0 l/m 0 min 0 min 0 W/m 22,5 km/h (4 Bft) 93,62 %
15.09.2021 22:12 17,8 C 17,2 C 16,1 C 87 % 1014,1 hPa 0,0 l/m 0 min 0 min 0 W/m 16,1 km/h (3 Bft) 95,74 %
15.09.2021 22:14 17,8 C 17,2 C 16,1 C 87 % 1014,0 hPa 0,0 l/m 0 min 0 min 0 W/m 16,1 km/h (3 Bft) 93,62 %
15.09.2021 22:16 17,8 C 17,2 C 16,1 C 87 % 1014,1 hPa 0,0 l/m 0 min 0 min 0 W/m 9,7 km/h (2 Bft) 97,83 %
15.09.2021 22:18 17,8 C 17,2 C 16,1 C 87 % 1014,1 hPa 0,0 l/m 0 min 0 min 0 W/m 12,9 km/h (3 Bft) 97,87 %
15.09.2021 22:20 17,8 C 16,7 C 16,1 C 87 % 1014,2 hPa 0,0 l/m 0 min 0 min 0 W/m 12,9 km/h (3 Bft) 97,87 %
15.09.2021 22:22 17,7 C 17,2 C 16,1 C 87 % 1014,1 hPa 0,0 l/m 0 min 0 min 0 W/m 6,4 km/h (2 Bft) 95,74 %
15.09.2021 22:24 17,7 C 17,2 C 16,1 C 87 % 1014,2 hPa 0,0 l/m 0 min 0 min 0 W/m 9,7 km/h (2 Bft) 97,87 %
15.09.2021 22:26 17,7 C 16,7 C 16,1 C 87 % 1014,1 hPa 0,0 l/m 0 min 0 min 0 W/m 22,5 km/h (4 Bft) 97,87 %
15.09.2021 22:28 17,6 C 16,7 C 15,6 C 87 % 1014,2 hPa 0,0 l/m 0 min 0 min 0 W/m 16,1 km/h (3 Bft) 97,83 %
15.09.2021 22:30 17,6 C 16,7 C 15,6 C 87 % 1014,2 hPa 0,0 l/m 0 min 0 min 0 W/m 25,7 km/h (4 Bft) 93,62 %
15.09.2021 22:32 17,6 C 16,7 C 15,6 C 87 % 1014,3 hPa 0,0 l/m 0 min 0 min 0 W/m 16,1 km/h (3 Bft) 100,00 %
15.09.2021 22:34 17,5 C 16,7 C 15,6 C 87 % 1014,2 hPa 0,0 l/m 0 min 0 min 0 W/m 22,5 km/h (4 Bft) 100,00 %
15.09.2021 22:36 17,5 C 16,7 C 15,6 C 87 % 1014,2 hPa 0,0 l/m 0 min 0 min 0 W/m 6,4 km/h (2 Bft) 100,00 %
15.09.2021 22:38 17,5 C 16,7 C 15,6 C 88 % 1014,3 hPa 0,0 l/m 0 min 0 min 0 W/m 9,7 km/h (2 Bft) 100,00 %
15.09.2021 22:40 17,5 C 16,7 C 15,6 C 88 % 1014,3 hPa 0,0 l/m 0 min 0 min 0 W/m 12,9 km/h (3 Bft) 95,65 %
15.09.2021 22:42 17,5 C 16,7 C 15,6 C 88 % 1014,3 hPa 0,0 l/m 0 min 0 min 0 W/m 22,5 km/h (4 Bft) 100,00 %
15.09.2021 22:44 17,4 C 16,7 C 15,6 C 88 % 1014,3 hPa 0,0 l/m 0 min 0 min 0 W/m 12,9 km/h (3 Bft) 100,00 %
15.09.2021 22:46 17,4 C 16,7 C 15,6 C 88 % 1014,3 hPa 0,0 l/m 0 min 0 min 0 W/m 22,5 km/h (4 Bft) 100,00 %
15.09.2021 22:48 17,4 C 16,7 C 15,6 C 88 % 1014,3 hPa 0,0 l/m 0 min 0 min 0 W/m 19,3 km/h (3 Bft) 100,00 %
15.09.2021 22:50 17,4 C 16,7 C 15,6 C 88 % 1014,4 hPa 0,0 l/m 0 min 0 min 0 W/m 19,3 km/h (3 Bft) 100,00 %
15.09.2021 22:52 17,4 C 16,7 C 15,6 C 88 % 1014,4 hPa 0,0 l/m 0 min 0 min 0 W/m 12,9 km/h (3 Bft) 100,00 %
15.09.2021 22:54 17,4 C 16,7 C 15,6 C 88 % 1014,4 hPa 0,0 l/m 0 min 0 min 0 W/m 16,1 km/h (3 Bft) 100,00 %
15.09.2021 22:56 17,4 C 16,7 C 15,6 C 88 % 1014,4 hPa 0,0 l/m 0 min 0 min 0 W/m 12,9 km/h (3 Bft) 100,00 %
15.09.2021 22:58 17,4 C 16,7 C 15,6 C 88 % 1014,5 hPa 0,0 l/m 0 min 0 min 0 W/m 16,1 km/h (3 Bft) 100,00 %
15.09.2021 23:00 17,4 C 16,7 C 15,6 C 88 % 1014,5 hPa 0,0 l/m 0 min 0 min 0 W/m 19,3 km/h (3 Bft) 100,00 %
15.09.2021 23:02 17,3 C 16,7 C 15,6 C 88 % 1014,5 hPa 0,0 l/m 0 min 0 min 0 W/m 16,1 km/h (3 Bft) 100,00 %
15.09.2021 23:04 17,3 C 16,7 C 15,6 C 88 % 1014,5 hPa 0,0 l/m 0 min 0 min 0 W/m 12,9 km/h (3 Bft) 100,00 %
15.09.2021 23:06 17,3 C 16,7 C 15,6 C 89 % 1014,5 hPa 0,0 l/m 0 min 0 min 0 W/m 9,7 km/h (2 Bft) 100,00 %
15.09.2021 23:08 17,3 C 16,7 C 15,6 C 89 % 1014,5 hPa 0,0 l/m 0 min 0 min 0 W/m 12,9 km/h (3 Bft) 100,00 %
15.09.2021 23:10 17,3 C 16,7 C 15,6 C 89 % 1014,4 hPa 0,0 l/m 0 min 0 min 0 W/m 16,1 km/h (3 Bft) 100,00 %
15.09.2021 23:12 17,3 C 16,7 C 15,6 C 89 % 1014,4 hPa 0,0 l/m 0 min 0 min 0 W/m 12,9 km/h (3 Bft) 100,00 %
15.09.2021 23:14 17,3 C 16,7 C 15,6 C 89 % 1014,5 hPa 0,0 l/m 0 min 0 min 0 W/m 12,9 km/h (3 Bft) 100,00 %
15.09.2021 23:16 17,3 C 16,7 C 15,6 C 89 % 1014,5 hPa 0,0 l/m 0 min 0 min 0 W/m 16,1 km/h (3 Bft) 100,00 %
15.09.2021 23:18 17,2 C 16,7 C 15,6 C 89 % 1014,5 hPa 0,0 l/m 0 min 0 min 0 W/m 16,1 km/h (3 Bft) 100,00 %
15.09.2021 23:20 17,2 C 16,7 C 15,6 C 89 % 1014,5 hPa 0,0 l/m 0 min 0 min 0 W/m 6,4 km/h (2 Bft) 97,87 %
15.09.2021 23:22 17,2 C 16,7 C 15,6 C 89 % 1014,5 hPa 0,0 l/m 0 min 0 min 0 W/m 6,4 km/h (2 Bft) 100,00 %
15.09.2021 23:24 17,2 C 16,7 C 15,6 C 89 % 1014,5 hPa 0,0 l/m 0 min 0 min 0 W/m 12,9 km/h (3 Bft) 97,87 %
15.09.2021 23:26 17,2 C 16,7 C 15,6 C 89 % 1014,5 hPa 0,0 l/m 0 min 0 min 0 W/m 9,7 km/h (2 Bft) 100,00 %
15.09.2021 23:28 17,2 C 16,7 C 15,6 C 89 % 1014,5 hPa 0,0 l/m 0 min 0 min 0 W/m 12,9 km/h (3 Bft) 100,00 %
15.09.2021 23:30 17,1 C 16,7 C 15,6 C 89 % 1014,5 hPa 0,0 l/m 0 min 0 min 0 W/m 16,1 km/h (3 Bft) 100,00 %
15.09.2021 23:32 17,1 C 16,7 C 15,6 C 89 % 1014,5 hPa 0,0 l/m 0 min 0 min 0 W/m 9,7 km/h (2 Bft) 100,00 %
15.09.2021 23:34 17,1 C 16,7 C 15,6 C 89 % 1014,5 hPa 0,0 l/m 0 min 0 min 0 W/m 9,7 km/h (2 Bft) 100,00 %
15.09.2021 23:36 17,1 C 16,7 C 15,6 C 89 % 1014,5 hPa 0,0 l/m 0 min 0 min 0 W/m 9,7 km/h (2 Bft) 100,00 %
15.09.2021 23:38 17,1 C 16,1 C 15,6 C 89 % 1014,5 hPa 0,0 l/m 0 min 0 min 0 W/m 9,7 km/h (2 Bft) 100,00 %
15.09.2021 23:40 17,1 C 16,1 C 15,6 C 89 % 1014,6 hPa 0,0 l/m 0 min 0 min 0 W/m 16,1 km/h (3 Bft) 97,87 %
15.09.2021 23:42 17,0 C 16,1 C 15,6 C 89 % 1014,5 hPa 0,0 l/m 0 min 0 min 0 W/m 6,4 km/h (2 Bft) 100,00 %
15.09.2021 23:44 17,1 C 16,1 C 15,6 C 90 % 1014,6 hPa 0,0 l/m 0 min 0 min 0 W/m 9,7 km/h (2 Bft) 97,87 %
15.09.2021 23:46 17,0 C 16,1 C 15,6 C 90 % 1014,6 hPa 0,0 l/m 0 min 0 min 0 W/m 6,4 km/h (2 Bft) 97,87 %
15.09.2021 23:48 17,0 C 16,1 C 15,6 C 90 % 1014,6 hPa 0,0 l/m 0 min 0 min 0 W/m 6,4 km/h (2 Bft) 100,00 %
15.09.2021 23:50 17,0 C 16,1 C 15,6 C 90 % 1014,6 hPa 0,0 l/m 0 min 0 min 0 W/m 6,4 km/h (2 Bft) 97,87 %
15.09.2021 23:52 17,0 C 16,1 C 15,6 C 90 % 1014,6 hPa 0,0 l/m 0 min 0 min 0 W/m 3,2 km/h (1 Bft) 95,74 %
15.09.2021 23:54 17,0 C 16,1 C 15,6 C 90 % 1014,7 hPa 0,0 l/m 0 min 0 min 0 W/m 6,4 km/h (2 Bft) 95,74 %
15.09.2021 23:56 17,0 C 16,1 C 15,6 C 90 % 1014,7 hPa 0,0 l/m 0 min 0 min 0 W/m 6,4 km/h (2 Bft) 95,74 %
15.09.2021 23:58 17,0 C 16,1 C 15,6 C 90 % 1014,7 hPa 0,0 l/m 0 min 0 min 0 W/m 9,7 km/h (2 Bft) 97,87 %
_ Min-Zeit 23:42 23:38 22:28 18:02 07:00 - - - - 00:00 08:54
Minimum _ 17,0 C 16,1 C 15,6 C 81 % 1009,9 hPa - - - - 0,0 km/h (0 Bft) 55,32 %
_ Max-Zeit 15:14 15:00 15:46 10:16 23:54 07:20 11:40 06:55 14:52 10:46 00:08
Maximum _ 22,5 C 24,4 C 21,1 C 98 % 1014,7 hPa 1,6 l/m 2 min 5 min 731 W/m 32,2 km/h
SW (5 Bft)
100,00 %
Durchschnitt _ 19,5 C 19,0 C 17,6 C 91 % 1011,4 hPa #3,6 l/m #2:10 h #2:02 h 147 W/m 7,1 km/h (2 Bft) 97,44 %
© 2021 W. Hausmann